Home > Products > Valid Products > TAF

000
FTUS45 KSLC 021443 AAB
TAFSLC
TAF AMD
KSLC 021443Z 0215/0318 33007KT P6SM -SHRA SCT025 BKN050
      TEMPO 0215/0217 BKN025
     FM030000 31009KT 5SM -RASN BR SCT025 BKN040
     FM030600 29004KT 2SM -SN SCT010 BKN020=



000
FTUS45 KSLC 021443 AAB
TAFSLC
TAF AMD
KSLC 021443Z 0215/0318 33007KT P6SM -SHRA SCT025 BKN050
      TEMPO 0215/0217 BKN025
     FM030000 31009KT 5SM -RASN BR SCT025 BKN040
     FM030600 29004KT 2SM -SN SCT010 BKN020=



000
FTUS45 KSLC 021443 AAB
TAFSLC
TAF AMD
KSLC 021443Z 0215/0318 33007KT P6SM -SHRA SCT025 BKN050
      TEMPO 0215/0217 BKN025
     FM030000 31009KT 5SM -RASN BR SCT025 BKN040
     FM030600 29004KT 2SM -SN SCT010 BKN020=



000
FTUS45 KSLC 021443 AAB
TAFSLC
TAF AMD
KSLC 021443Z 0215/0318 33007KT P6SM -SHRA SCT025 BKN050
      TEMPO 0215/0217 BKN025
     FM030000 31009KT 5SM -RASN BR SCT025 BKN040
     FM030600 29004KT 2SM -SN SCT010 BKN020=



000
FTUS45 KSLC 021127
TAFPVU
TAF
KPVU 021127Z 0212/0312 VRB05KT P6SM BKN050 OVC060
     FM021300 12005KT P6SM -RASN SCT015 BKN025
     FM021800 30007KT P6SM -RA SCT015 BKN025
     FM030300 29010KT 5SM -SN BR SCT010 BKN025
      AMD LTD TO CLD VIS AND WIND=



000
FTUS45 KSLC 021127
TAFLGU
TAF
KLGU 021127Z 0212/0312 16005KT P6SM BKN070
     FM021400 VRB04KT P6SM BKN060 BKN080
     FM022000 35006KT P6SM VCSH SCT020 BKN050=



000
FTUS45 KSLC 021127
TAFLGU
TAF
KLGU 021127Z 0212/0312 16005KT P6SM BKN070
     FM021400 VRB04KT P6SM BKN060 BKN080
     FM022000 35006KT P6SM VCSH SCT020 BKN050=



000
FTUS45 KSLC 021127
TAFCDC
TAF
KCDC 021127Z 0212/0312 VRB04KT 2SM -SN BR OVC030
      TEMPO 0212/0216 3/4SM -SN BR VV005
     FM021600 21010KT 3SM -SN BR BKN010 OVC020
     FM022300 21010KT P6SM VCSH SCT010 BKN030=



000
FTUS45 KSLC 021127
TAFSLC
TAF
KSLC 021127Z 0212/0318 15004KT P6SM VCSH OVC070
     FM021600 32005KT P6SM VCSH SCT025 BKN050
     FM021800 32007KT P6SM -SHRA SCT025 BKN050
     FM030000 31009KT 5SM -RASN BR SCT025 BKN040
     FM030600 29004KT 2SM -SN SCT010 BKN020=



000
FTUS45 KSLC 021127
TAFENV
TAF
KENV 021127Z 0212/0312 VRB05KT P6SM SCT060 BKN090
     FM021500 34007KT P6SM VCSH BKN060
     FM030300 VRB04KT P6SM FEW070 BKN100
      AMD LTD TO CLD VIS AND WIND=



000
FTUS45 KSLC 021127
TAFPVU
TAF
KPVU 021127Z 0212/0312 VRB05KT P6SM BKN050 OVC060
     FM021300 12005KT P6SM -RASN SCT015 BKN025
     FM021800 30007KT P6SM -RA SCT015 BKN025
     FM030300 29010KT 5SM -SN BR SCT010 BKN025
      AMD LTD TO CLD VIS AND WIND=



000
FTUS45 KSLC 021127
TAFOGD
TAF
KOGD 021127Z 0212/0312 18005KT P6SM BKN070
     FM021400 VRB04KT P6SM VCSH SCT030 BKN050
     FM021700 30005KT P6SM VCSH SCT030 BKN050
     FM022200 29008KT P6SM -RASN SCT025 BKN040
     FM030300 33005KT 3SM -SN SCT010 BKN025=



000
FTUS45 KSLC 021127
TAFCDC
TAF
KCDC 021127Z 0212/0312 VRB04KT 2SM -SN BR OVC030
      TEMPO 0212/0216 3/4SM -SN BR VV005
     FM021600 21010KT 3SM -SN BR BKN010 OVC020
     FM022300 21010KT P6SM VCSH SCT010 BKN030=



000
FTUS45 KSLC 021127
TAFSLC
TAF
KSLC 021127Z 0212/0318 15004KT P6SM VCSH OVC070
     FM021600 32005KT P6SM VCSH SCT025 BKN050
     FM021800 32007KT P6SM -SHRA SCT025 BKN050
     FM030000 31009KT 5SM -RASN BR SCT025 BKN040
     FM030600 29004KT 2SM -SN SCT010 BKN020=



000
FTUS45 KSLC 021127
TAFOGD
TAF
KOGD 021127Z 0212/0312 18005KT P6SM BKN070
     FM021400 VRB04KT P6SM VCSH SCT030 BKN050
     FM021700 30005KT P6SM VCSH SCT030 BKN050
     FM022200 29008KT P6SM -RASN SCT025 BKN040
     FM030300 33005KT 3SM -SN SCT010 BKN025=



000
FTUS45 KSLC 021127
TAFENV
TAF
KENV 021127Z 0212/0312 VRB05KT P6SM SCT060 BKN090
     FM021500 34007KT P6SM VCSH BKN060
     FM030300 VRB04KT P6SM FEW070 BKN100
      AMD LTD TO CLD VIS AND WIND=



000
FTUS45 KSLC 021127
TAFBCE
TAF
KBCE 021127Z 0212/0312 16006KT 1SM -SN BR VV010
      TEMPO 0212/0216 VRB04KT 1/2SM SN FZFG VV007
     FM021600 18006KT 1SM -SN BR OVC015
     FM022200 25012KT 6SM -SHSN SCT015 BKN030
     FM030000 26015KT P6SM VCSH BKN030 OVC060=



000
FTUS45 KSLC 021127
TAFSGU
TAF
KSGU 021127Z 0212/0312 20003KT P6SM -SHRA SCT015 OVC035
      TEMPO 0212/0216 5SM -RA BR BKN015
     FM021800 26010KT P6SM VCSH SCT030 BKN050
     FM030300 VRB04KT P6SM VCSH SCT030 BKN060
      AMD LTD TO CLD VIS AND WIND=



000
FTUS45 KSLC 021003 AAA
TAFBCE
TAF AMD
KBCE 021003Z 0210/0306 16006KT 1SM -SN BR VV010
      TEMPO 0210/0214 VRB04KT 1/2SM SN FZFG VV007
     FM021400 18006KT 1SM -SN BR OVC015
     FM022200 25012KT 6SM -SHSN SCT015 BKN030
     FM030000 26015KT P6SM VCSH BKN030 OVC060=



000
FTUS45 KSLC 021003 AAA
TAFBCE
TAF AMD
KBCE 021003Z 0210/0306 16006KT 1SM -SN BR VV010
      TEMPO 0210/0214 VRB04KT 1/2SM SN FZFG VV007
     FM021400 18006KT 1SM -SN BR OVC015
     FM022200 25012KT 6SM -SHSN SCT015 BKN030
     FM030000 26015KT P6SM VCSH BKN030 OVC060=



000
FTUS45 KSLC 020907 AAB
TAFSLC
TAF AMD
KSLC 020907Z 0209/0312 15004KT P6SM VCSH OVC060
     FM021600 32005KT P6SM VCSH SCT025 BKN050
     FM021800 32007KT P6SM -SHRA SCT025 BKN050
     FM030000 31009KT 5SM -RASN BR SCT025 BKN040
     FM030600 29004KT 5SM -SN SCT010 BKN025=



000
FTUS45 KSLC 020907 AAB
TAFSLC
TAF AMD
KSLC 020907Z 0209/0312 15004KT P6SM VCSH OVC060
     FM021600 32005KT P6SM VCSH SCT025 BKN050
     FM021800 32007KT P6SM -SHRA SCT025 BKN050
     FM030000 31009KT 5SM -RASN BR SCT025 BKN040
     FM030600 29004KT 5SM -SN SCT010 BKN025=



000
FTUS45 KSLC 020822 AAA
TAFSGU
TAF AMD
KSGU 020822Z 0208/0306 20003KT P6SM -SHRA SCT015 OVC035
     FM021800 26010KT P6SM VCSH SCT030 BKN050
      AMD LTD TO CLD VIS AND WIND=



000
FTUS45 KSLC 020822 AAA
TAFSGU
TAF AMD
KSGU 020822Z 0208/0306 20003KT P6SM -SHRA SCT015 OVC035
     FM021800 26010KT P6SM VCSH SCT030 BKN050
      AMD LTD TO CLD VIS AND WIND=



000
FTUS45 KSLC 020541
TAFOGD
TAF
KOGD 020541Z 0206/0306 18005KT P6SM BKN070
     FM021400 VRB04KT P6SM VCSH SCT030 BKN050
     FM021700 30005KT P6SM VCSH SCT030 BKN050
     FM030300 33005KT 5SM -RASN SCT010 BKN025=



000
FTUS45 KSLC 020541
TAFENV
TAF
KENV 020541Z 0206/0306 29004KT P6SM SCT060
     FM020800 VRB05KT P6SM SCT060 BKN090
     FM021500 34007KT P6SM BKN060
     FM030300 VRB04KT P6SM FEW070 BKN100
      AMD LTD TO CLD VIS AND WIND=



000
FTUS45 KSLC 020541
TAFCDC
TAF
KCDC 020541Z 0206/0306 VRB04KT 1SM -SN BR OVC010
      TEMPO 0206/0210 3/4SM -SN BR VV005
     FM021500 21010KT 3SM -SN BR BKN010 OVC020
     FM021800 21010KT P6SM VCSH SCT010 BKN030=



000
FTUS45 KSLC 020541
TAFSLC
TAF
KSLC 020541Z 0206/0312 33004KT P6SM BKN070 BKN080
     FM020900 15004KT P6SM VCSH BKN050
     FM021500 32005KT P6SM -RASN SCT025 BKN040
     FM021800 32007KT P6SM -RA SCT025 BKN040
     FM030000 31009KT 5SM -RASN BR SCT025 BKN040
     FM030600 29004KT 5SM -SN SCT010 BKN025=



000
FTUS45 KSLC 020541
TAFBCE
TAF
KBCE 020541Z 0206/0306 16006KT 1SM -SN BR VV010
      TEMPO 0206/0210 VRB04KT 1/2SM SN FZFG VV007
     FM021200 18006KT 1SM -SN BR OVC015
     FM022200 25012KT 6SM -SHSN SCT015 BKN030
     FM030000 26015KT P6SM VCSH BKN030 OVC060=



000
FTUS45 KSLC 020541
TAFSGU
TAF
KSGU 020541Z 0206/0306 20003KT P6SM -SHRA SCT015 OVC035
      TEMPO 0206/0210 P6SM -RA BKN007
     FM021800 26010KT P6SM VCSH SCT030 BKN050
      AMD LTD TO CLD VIS AND WIND=



000
FTUS45 KSLC 020541
TAFPVU
TAF
KPVU 020541Z 0206/0306 VRB05KT P6SM BKN050 OVC060
     FM021300 12005KT P6SM -RASN SCT015 BKN025
     FM021800 30007KT P6SM -RA SCT015 BKN025
     FM030300 29010KT 5SM -SN BR SCT010 BKN025
      AMD LTD TO CLD VIS AND WIND=



000
FTUS45 KSLC 020541
TAFPVU
TAF
KPVU 020541Z 0206/0306 VRB05KT P6SM BKN050 OVC060
     FM021300 12005KT P6SM -RASN SCT015 BKN025
     FM021800 30007KT P6SM -RA SCT015 BKN025
     FM030300 29010KT 5SM -SN BR SCT010 BKN025
      AMD LTD TO CLD VIS AND WIND=



000
FTUS45 KSLC 020541
TAFCDC
TAF
KCDC 020541Z 0206/0306 VRB04KT 1SM -SN BR OVC010
      TEMPO 0206/0210 3/4SM -SN BR VV005
     FM021500 21010KT 3SM -SN BR BKN010 OVC020
     FM021800 21010KT P6SM VCSH SCT010 BKN030=



000
FTUS45 KSLC 020541
TAFOGD
TAF
KOGD 020541Z 0206/0306 18005KT P6SM BKN070
     FM021400 VRB04KT P6SM VCSH SCT030 BKN050
     FM021700 30005KT P6SM VCSH SCT030 BKN050
     FM030300 33005KT 5SM -RASN SCT010 BKN025=



000
FTUS45 KSLC 020541
TAFSLC
TAF
KSLC 020541Z 0206/0312 33004KT P6SM BKN070 BKN080
     FM020900 15004KT P6SM VCSH BKN050
     FM021500 32005KT P6SM -RASN SCT025 BKN040
     FM021800 32007KT P6SM -RA SCT025 BKN040
     FM030000 31009KT 5SM -RASN BR SCT025 BKN040
     FM030600 29004KT 5SM -SN SCT010 BKN025=



000
FTUS45 KSLC 020541
TAFBCE
TAF
KBCE 020541Z 0206/0306 16006KT 1SM -SN BR VV010
      TEMPO 0206/0210 VRB04KT 1/2SM SN FZFG VV007
     FM021200 18006KT 1SM -SN BR OVC015
     FM022200 25012KT 6SM -SHSN SCT015 BKN030
     FM030000 26015KT P6SM VCSH BKN030 OVC060=



000
FTUS45 KSLC 020541
TAFENV
TAF
KENV 020541Z 0206/0306 29004KT P6SM SCT060
     FM020800 VRB05KT P6SM SCT060 BKN090
     FM021500 34007KT P6SM BKN060
     FM030300 VRB04KT P6SM FEW070 BKN100
      AMD LTD TO CLD VIS AND WIND=



000
FTUS45 KSLC 020541
TAFLGU
TAF
KLGU 020541Z 0206/0306 16005KT P6SM BKN070
     FM021200 VRB04KT P6SM BKN060 BKN080
     FM021800 VRB04KT P6SM VCSH SCT020 BKN050=



000
FTUS45 KSLC 020541
TAFSGU
TAF
KSGU 020541Z 0206/0306 20003KT P6SM -SHRA SCT015 OVC035
      TEMPO 0206/0210 P6SM -RA BKN007
     FM021800 26010KT P6SM VCSH SCT030 BKN050
      AMD LTD TO CLD VIS AND WIND=



000
FTUS45 KSLC 020541
TAFENV
TAF
KENV 020541Z 0206/0306 29004KT P6SM SCT060
     FM020800 VRB05KT P6SM SCT060 BKN090
     FM021500 34007KT P6SM BKN060
     FM030300 VRB04KT P6SM FEW070 BKN100
      AMD LTD TO CLD VIS AND WIND=



000
FTUS45 KSLC 020541
TAFOGD
TAF
KOGD 020541Z 0206/0306 18005KT P6SM BKN070
     FM021400 VRB04KT P6SM VCSH SCT030 BKN050
     FM021700 30005KT P6SM VCSH SCT030 BKN050
     FM030300 33005KT 5SM -RASN SCT010 BKN025=



000
FTUS45 KSLC 020541
TAFCDC
TAF
KCDC 020541Z 0206/0306 VRB04KT 1SM -SN BR OVC010
      TEMPO 0206/0210 3/4SM -SN BR VV005
     FM021500 21010KT 3SM -SN BR BKN010 OVC020
     FM021800 21010KT P6SM VCSH SCT010 BKN030=



000
FTUS45 KSLC 020541
TAFSLC
TAF
KSLC 020541Z 0206/0312 33004KT P6SM BKN070 BKN080
     FM020900 15004KT P6SM VCSH BKN050
     FM021500 32005KT P6SM -RASN SCT025 BKN040
     FM021800 32007KT P6SM -RA SCT025 BKN040
     FM030000 31009KT 5SM -RASN BR SCT025 BKN040
     FM030600 29004KT 5SM -SN SCT010 BKN025=



000
FTUS45 KSLC 020541
TAFPVU
TAF
KPVU 020541Z 0206/0306 VRB05KT P6SM BKN050 OVC060
     FM021300 12005KT P6SM -RASN SCT015 BKN025
     FM021800 30007KT P6SM -RA SCT015 BKN025
     FM030300 29010KT 5SM -SN BR SCT010 BKN025
      AMD LTD TO CLD VIS AND WIND=



000
FTUS45 KSLC 020541
TAFOGD
TAF
KOGD 020541Z 0206/0306 18005KT P6SM BKN070
     FM021400 VRB04KT P6SM VCSH SCT030 BKN050
     FM021700 30005KT P6SM VCSH SCT030 BKN050
     FM030300 33005KT 5SM -RASN SCT010 BKN025=



000
FTUS45 KSLC 020541
TAFBCE
TAF
KBCE 020541Z 0206/0306 16006KT 1SM -SN BR VV010
      TEMPO 0206/0210 VRB04KT 1/2SM SN FZFG VV007
     FM021200 18006KT 1SM -SN BR OVC015
     FM022200 25012KT 6SM -SHSN SCT015 BKN030
     FM030000 26015KT P6SM VCSH BKN030 OVC060=



000
FTUS45 KSLC 020541
TAFBCE
TAF
KBCE 020541Z 0206/0306 16006KT 1SM -SN BR VV010
      TEMPO 0206/0210 VRB04KT 1/2SM SN FZFG VV007
     FM021200 18006KT 1SM -SN BR OVC015
     FM022200 25012KT 6SM -SHSN SCT015 BKN030
     FM030000 26015KT P6SM VCSH BKN030 OVC060=



000
FTUS45 KSLC 020541
TAFSLC
TAF
KSLC 020541Z 0206/0312 33004KT P6SM BKN070 BKN080
     FM020900 15004KT P6SM VCSH BKN050
     FM021500 32005KT P6SM -RASN SCT025 BKN040
     FM021800 32007KT P6SM -RA SCT025 BKN040
     FM030000 31009KT 5SM -RASN BR SCT025 BKN040
     FM030600 29004KT 5SM -SN SCT010 BKN025=



000
FTUS45 KSLC 020541
TAFSGU
TAF
KSGU 020541Z 0206/0306 20003KT P6SM -SHRA SCT015 OVC035
      TEMPO 0206/0210 P6SM -RA BKN007
     FM021800 26010KT P6SM VCSH SCT030 BKN050
      AMD LTD TO CLD VIS AND WIND=



000
FTUS45 KSLC 020541
TAFPVU
TAF
KPVU 020541Z 0206/0306 VRB05KT P6SM BKN050 OVC060
     FM021300 12005KT P6SM -RASN SCT015 BKN025
     FM021800 30007KT P6SM -RA SCT015 BKN025
     FM030300 29010KT 5SM -SN BR SCT010 BKN025
      AMD LTD TO CLD VIS AND WIND=



000
FTUS45 KSLC 020541
TAFLGU
TAF
KLGU 020541Z 0206/0306 16005KT P6SM BKN070
     FM021200 VRB04KT P6SM BKN060 BKN080
     FM021800 VRB04KT P6SM VCSH SCT020 BKN050=



000
FTUS45 KSLC 020541
TAFENV
TAF
KENV 020541Z 0206/0306 29004KT P6SM SCT060
     FM020800 VRB05KT P6SM SCT060 BKN090
     FM021500 34007KT P6SM BKN060
     FM030300 VRB04KT P6SM FEW070 BKN100
      AMD LTD TO CLD VIS AND WIND=



000
FTUS45 KSLC 020541
TAFCDC
TAF
KCDC 020541Z 0206/0306 VRB04KT 1SM -SN BR OVC010
      TEMPO 0206/0210 3/4SM -SN BR VV005
     FM021500 21010KT 3SM -SN BR BKN010 OVC020
     FM021800 21010KT P6SM VCSH SCT010 BKN030=



000
FTUS45 KSLC 020541
TAFSGU
TAF
KSGU 020541Z 0206/0306 20003KT P6SM -SHRA SCT015 OVC035
      TEMPO 0206/0210 P6SM -RA BKN007
     FM021800 26010KT P6SM VCSH SCT030 BKN050
      AMD LTD TO CLD VIS AND WIND=



000
FTUS45 KSLC 020541
TAFLGU
TAF
KLGU 020541Z 0206/0306 16005KT P6SM BKN070
     FM021200 VRB04KT P6SM BKN060 BKN080
     FM021800 VRB04KT P6SM VCSH SCT020 BKN050=



000
FTUS45 KSLC 020541
TAFLGU
TAF
KLGU 020541Z 0206/0306 16005KT P6SM BKN070
     FM021200 VRB04KT P6SM BKN060 BKN080
     FM021800 VRB04KT P6SM VCSH SCT020 BKN050=



000
FTUS45 KSLC 020247 AAB
TAFSLC
TAF AMD
KSLC 020247Z 0203/0306 29004KT P6SM SCT060 BKN090
     FM020400 33004KT P6SM BKN050 BKN080
     FM020900 15004KT P6SM VCSH BKN050
     FM021500 32005KT P6SM -RASN SCT025 BKN040
     FM021800 32007KT P6SM -RA SCT025 BKN040
     FM030000 31009KT 5SM -RASN BR SCT025 BKN040=



000
FTUS45 KSLC 020247 AAB
TAFSLC
TAF AMD
KSLC 020247Z 0203/0306 29004KT P6SM SCT060 BKN090
     FM020400 33004KT P6SM BKN050 BKN080
     FM020900 15004KT P6SM VCSH BKN050
     FM021500 32005KT P6SM -RASN SCT025 BKN040
     FM021800 32007KT P6SM -RA SCT025 BKN040
     FM030000 31009KT 5SM -RASN BR SCT025 BKN040=



000
FTUS45 KSLC 020247 AAB
TAFSLC
TAF AMD
KSLC 020247Z 0203/0306 29004KT P6SM SCT060 BKN090
     FM020400 33004KT P6SM BKN050 BKN080
     FM020900 15004KT P6SM VCSH BKN050
     FM021500 32005KT P6SM -RASN SCT025 BKN040
     FM021800 32007KT P6SM -RA SCT025 BKN040
     FM030000 31009KT 5SM -RASN BR SCT025 BKN040=



000
FTUS45 KSLC 020108 AAA
TAFBCE
TAF AMD
KBCE 020108Z 0201/0224 16006KT 1/2SM SN FZFG VV007
     FM021200 18006KT 1SM -SN BR OVC015
     FM022200 25012KT P6SM -SHSN SCT015 BKN030=



000
FTUS45 KSLC 020108 AAA
TAFBCE
TAF AMD
KBCE 020108Z 0201/0224 16006KT 1/2SM SN FZFG VV007
     FM021200 18006KT 1SM -SN BR OVC015
     FM022200 25012KT P6SM -SHSN SCT015 BKN030=



000
FTUS45 KSLC 020108 AAA
TAFBCE
TAF AMD
KBCE 020108Z 0201/0224 16006KT 1/2SM SN FZFG VV007
     FM021200 18006KT 1SM -SN BR OVC015
     FM022200 25012KT P6SM -SHSN SCT015 BKN030=



000
FTUS45 KSLC 012322
TAFBCE
TAF
KBCE 012322Z 0200/0224 15010KT 1SM -SN BR SCT009 OVC015
     FM020200 16006KT 1/2SM SN FZFG VV004
     FM021200 18006KT 1SM -SN BR OVC015
     FM022200 25012KT P6SM -SHSN SCT015 BKN030=



000
FTUS45 KSLC 012322
TAFPVU
TAF
KPVU 012322Z 0200/0224 30006KT P6SM SCT040 BKN080
     FM021300 30007KT P6SM -RASN SCT015 BKN025
     FM021800 30007KT P6SM -RA SCT015 BKN025
      AMD LTD TO CLD VIS AND WIND=



000
FTUS45 KSLC 012322
TAFLGU
TAF
KLGU 012322Z 0200/0224 VRB04KT P6SM BKN080
     FM021200 VRB04KT P6SM BKN060 BKN080
     FM021800 VRB04KT P6SM SCT020 BKN050=



000
FTUS45 KSLC 012322
TAFSLC
TAF
KSLC 012322Z 0200/0306 32004KT P6SM SCT060 BKN090
     FM020400 33004KT P6SM BKN050 BKN080
     FM020900 15004KT P6SM VCSH BKN050
     FM021500 32005KT P6SM -RASN SCT025 BKN040
     FM021800 32007KT P6SM -RA SCT025 BKN040
     FM030000 31009KT 5SM -RASN BR SCT025 BKN040=



000
FTUS45 KSLC 012322
TAFSGU
TAF
KSGU 012322Z 0200/0224 VRB04KT P6SM -RA SCT010 OVC040
     FM020400 VRB03KT P6SM -SHRA SCT015 OVC025
      AMD LTD TO CLD VIS AND WIND=



000
FTUS45 KSLC 012322
TAFCDC
TAF
KCDC 012322Z 0200/0224 VRB04KT 4SM -SN BR SCT011 BKN025
     FM020200 VRB04KT 1SM -SN BR OVC010
     FM021800 VRB04KT P6SM VCSH SCT010 BKN030=



000
FTUS45 KSLC 012322
TAFENV
TAF
KENV 012322Z 0200/0224 13010KT P6SM SCT060
     FM020800 VRB05KT P6SM BKN060
      AMD LTD TO CLD VIS AND WIND=



000
FTUS45 KSLC 012322
TAFOGD
TAF
KOGD 012322Z 0200/0224 VRB05KT P6SM BKN050
     FM021400 VRB04KT P6SM VCSH SCT030 BKN050=



000
FTUS45 KSLC 012322
TAFCDC
TAF
KCDC 012322Z 0200/0224 VRB04KT 4SM -SN BR SCT011 BKN025
     FM020200 VRB04KT 1SM -SN BR OVC010
     FM021800 VRB04KT P6SM VCSH SCT010 BKN030=



000
FTUS45 KSLC 012322
TAFENV
TAF
KENV 012322Z 0200/0224 13010KT P6SM SCT060
     FM020800 VRB05KT P6SM BKN060
      AMD LTD TO CLD VIS AND WIND=



000
FTUS45 KSLC 012322
TAFLGU
TAF
KLGU 012322Z 0200/0224 VRB04KT P6SM BKN080
     FM021200 VRB04KT P6SM BKN060 BKN080
     FM021800 VRB04KT P6SM SCT020 BKN050=



000
FTUS45 KSLC 012322
TAFOGD
TAF
KOGD 012322Z 0200/0224 VRB05KT P6SM BKN050
     FM021400 VRB04KT P6SM VCSH SCT030 BKN050=



000
FTUS45 KSLC 012322
TAFSLC
TAF
KSLC 012322Z 0200/0306 32004KT P6SM SCT060 BKN090
     FM020400 33004KT P6SM BKN050 BKN080
     FM020900 15004KT P6SM VCSH BKN050
     FM021500 32005KT P6SM -RASN SCT025 BKN040
     FM021800 32007KT P6SM -RA SCT025 BKN040
     FM030000 31009KT 5SM -RASN BR SCT025 BKN040=



000
FTUS45 KSLC 012322
TAFPVU
TAF
KPVU 012322Z 0200/0224 30006KT P6SM SCT040 BKN080
     FM021300 30007KT P6SM -RASN SCT015 BKN025
     FM021800 30007KT P6SM -RA SCT015 BKN025
      AMD LTD TO CLD VIS AND WIND=



000
FTUS45 KSLC 012322
TAFSGU
TAF
KSGU 012322Z 0200/0224 VRB04KT P6SM -RA SCT010 OVC040
     FM020400 VRB03KT P6SM -SHRA SCT015 OVC025
      AMD LTD TO CLD VIS AND WIND=



000
FTUS45 KSLC 012322
TAFBCE
TAF
KBCE 012322Z 0200/0224 15010KT 1SM -SN BR SCT009 OVC015
     FM020200 16006KT 1/2SM SN FZFG VV004
     FM021200 18006KT 1SM -SN BR OVC015
     FM022200 25012KT P6SM -SHSN SCT015 BKN030=



000
FTUS45 KSLC 012216 AAA
TAFCDC
TAF AMD
KCDC 012216Z 0122/0218 VRB04KT P6SM VCSH SCT015 BKN050
     FM012300 VRB04KT 4SM -SN BR SCT011 BKN025
     FM020200 VRB04KT 1SM -SN BR OVC011
     FM020900 VRB04KT 3/4SM -SN BR VV005=



000
FTUS45 KSLC 012216 AAA
TAFCDC
TAF AMD
KCDC 012216Z 0122/0218 VRB04KT P6SM VCSH SCT015 BKN050
     FM012300 VRB04KT 4SM -SN BR SCT011 BKN025
     FM020200 VRB04KT 1SM -SN BR OVC011
     FM020900 VRB04KT 3/4SM -SN BR VV005=



000
FTUS45 KSLC 012216 AAA
TAFCDC
TAF AMD
KCDC 012216Z 0122/0218 VRB04KT P6SM VCSH SCT015 BKN050
     FM012300 VRB04KT 4SM -SN BR SCT011 BKN025
     FM020200 VRB04KT 1SM -SN BR OVC011
     FM020900 VRB04KT 3/4SM -SN BR VV005=



000
FTUS45 KSLC 012216 AAA
TAFCDC
TAF AMD
KCDC 012216Z 0122/0218 VRB04KT P6SM VCSH SCT015 BKN050
     FM012300 VRB04KT 4SM -SN BR SCT011 BKN025
     FM020200 VRB04KT 1SM -SN BR OVC011
     FM020900 VRB04KT 3/4SM -SN BR VV005=



000
FTUS45 KSLC 012215 AAB
TAFSLC
TAF AMD
KSLC 012215Z 0122/0224 32004KT P6SM SCT060 BKN090
     FM020400 15004KT P6SM BKN050 OVC080
     FM020900 32004KT P6SM VCSH OVC050
     FM021500 32005KT 3SM -SN BR BKN025 OVC050=



000
FTUS45 KSLC 012215 AAB
TAFSLC
TAF AMD
KSLC 012215Z 0122/0224 32004KT P6SM SCT060 BKN090
     FM020400 15004KT P6SM BKN050 OVC080
     FM020900 32004KT P6SM VCSH OVC050
     FM021500 32005KT 3SM -SN BR BKN025 OVC050=



000
FTUS45 KSLC 012017 AAA
TAFOGD
TAF AMD
KOGD 012017Z 0120/0218 VRB05KT P6SM BKN070
     FM020300 17005KT P6SM SCT050 BKN070
     FM021400 VRB04KT P6SM VCSH BKN050=



000
FTUS45 KSLC 012004 AAA
TAFPVU
TAF AMD
KPVU 012004Z 0120/0218 VRB04KT P6SM VCSH SCT025 BKN060
      TEMPO 0120/0122 P6SM -SN BKN025 BKN050
     FM012200 30006KT P6SM SCT040 BKN080
     FM021300 30007KT 2SM -SN BR BKN015 OVC035
      AMD LTD TO CLD VIS AND WIND=



000
FTUS45 KSLC 012004 AAA
TAFPVU
TAF AMD
KPVU 012004Z 0120/0218 VRB04KT P6SM VCSH SCT025 BKN060
      TEMPO 0120/0122 P6SM -SN BKN025 BKN050
     FM012200 30006KT P6SM SCT040 BKN080
     FM021300 30007KT 2SM -SN BR BKN015 OVC035
      AMD LTD TO CLD VIS AND WIND=



000
FTUS45 KSLC 012002 AAB
TAFSLC
TAF AMD
KSLC 012002Z 0120/0224 32004KT P6SM BKN060 BKN090
     FM020400 15004KT P6SM BKN050 OVC080
     FM020900 32004KT P6SM VCSH OVC050
     FM021500 32005KT 3SM -SN BR BKN025 OVC050=



000
FTUS45 KSLC 012002 AAB
TAFSLC
TAF AMD
KSLC 012002Z 0120/0224 32004KT P6SM BKN060 BKN090
     FM020400 15004KT P6SM BKN050 OVC080
     FM020900 32004KT P6SM VCSH OVC050
     FM021500 32005KT 3SM -SN BR BKN025 OVC050=



000
FTUS45 KSLC 012002 AAB
TAFSLC
TAF AMD
KSLC 012002Z 0120/0224 32004KT P6SM BKN060 BKN090
     FM020400 15004KT P6SM BKN050 OVC080
     FM020900 32004KT P6SM VCSH OVC050
     FM021500 32005KT 3SM -SN BR BKN025 OVC050=



000
FTUS45 KSLC 011939 AAA
TAFBCE
TAF AMD
KBCE 011939Z 0120/0218 01006KT 4SM -SN BR BKN040 BKN060
      TEMPO 0121/0122 1SM -SN BR OVC009
     FM012200 15010KT 1SM -SN BR SCT009 OVC015
     FM020200 16006KT 1/2SM SN FZFG VV004
     FM021200 18006KT 1SM -SN BR OVC015=



000
FTUS45 KSLC 011939 AAA
TAFBCE
TAF AMD
KBCE 011939Z 0120/0218 01006KT 4SM -SN BR BKN040 BKN060
      TEMPO 0121/0122 1SM -SN BR OVC009
     FM012200 15010KT 1SM -SN BR SCT009 OVC015
     FM020200 16006KT 1/2SM SN FZFG VV004
     FM021200 18006KT 1SM -SN BR OVC015=



000
FTUS45 KSLC 011747
TAFCDC
TAF
KCDC 011747Z 0118/0218 VRB04KT P6SM VCSH SCT015 BKN050
     FM012200 VRB04KT 4SM -SN BR SCT011 BKN025
     FM020200 VRB04KT 1SM -SN BR OVC011
     FM020900 VRB04KT 3/4SM -SN BR VV005=



000
FTUS45 KSLC 011747
TAFCDC
TAF
KCDC 011747Z 0118/0218 VRB04KT P6SM VCSH SCT015 BKN050
     FM012200 VRB04KT 4SM -SN BR SCT011 BKN025
     FM020200 VRB04KT 1SM -SN BR OVC011
     FM020900 VRB04KT 3/4SM -SN BR VV005=



000
FTUS45 KSLC 011747
TAFLGU
TAF
KLGU 011747Z 0118/0218 VRB04KT P6SM SKC
     FM012200 VRB04KT P6SM SCT060
     FM021200 VRB04KT P6SM BKN060 OVC100=



000
FTUS45 KSLC 011747
TAFSGU
TAF
KSGU 011747Z 0118/0218 VRB04KT P6SM VCSH BKN040 BKN060
     FM020000 VRB04KT P6SM -RA SCT010 OVC025
     FM020400 VRB03KT 4SM -RA OVC015
     FM021100 VRB03KT P6SM -SHRA SCT015 OVC025
      AMD LTD TO CLD VIS AND WIND=



000
FTUS45 KSLC 011747
TAFPVU
TAF
KPVU 011747Z 0118/0218 VRB04KT P6SM VCSH SCT025 BKN060
      TEMPO 0118/0120 P6SM -SN BKN025 BKN050
     FM012000 30006KT P6SM SCT040 BKN080
     FM021300 30007KT 2SM -SN BR BKN015 OVC035
      AMD LTD TO CLD VIS AND WIND=



000
FTUS45 KSLC 011747
TAFBCE
TAF
KBCE 011747Z 0118/0218 01006KT 2SM -SN BR BKN040 BKN060
      TEMPO 0118/0120 1SM -SN BR OVC009
     FM012000 15010KT 1SM -SN BR SCT009 OVC015
     FM020200 16006KT 1/2SM SN FZFG VV004
     FM021200 18006KT 1SM -SN BR OVC015=



000
FTUS45 KSLC 011747
TAFENV
TAF
KENV 011747Z 0118/0218 05006KT P6SM BKN060
     FM012000 VRB05KT P6SM SCT060
     FM020800 33005KT P6SM BKN060
      AMD LTD TO CLD VIS AND WIND=



000
FTUS45 KSLC 011747
TAFENV
TAF
KENV 011747Z 0118/0218 05006KT P6SM BKN060
     FM012000 VRB05KT P6SM SCT060
     FM020800 33005KT P6SM BKN060
      AMD LTD TO CLD VIS AND WIND=



000
FTUS45 KSLC 011747
TAFSLC
TAF
KSLC 011747Z 0118/0224 32007KT P6SM FEW060
     FM020400 15004KT P6SM SCT060
     FM020900 32004KT P6SM VCSH BKN060
     FM021500 32005KT 3SM -SN BR BKN025 OVC050=



000
FTUS45 KSLC 011747
TAFSLC
TAF
KSLC 011747Z 0118/0224 32007KT P6SM FEW060
     FM020400 15004KT P6SM SCT060
     FM020900 32004KT P6SM VCSH BKN060
     FM021500 32005KT 3SM -SN BR BKN025 OVC050=



000
FTUS45 KSLC 011747
TAFOGD
TAF
KOGD 011747Z 0118/0218 VRB05KT P6SM SKC
     FM020300 17005KT P6SM SCT050 BKN080
     FM021400 VRB04KT P6SM VCSH BKN050=



000
FTUS45 KSLC 011747
TAFOGD
TAF
KOGD 011747Z 0118/0218 VRB05KT P6SM SKC
     FM020300 17005KT P6SM SCT050 BKN080
     FM021400 VRB04KT P6SM VCSH BKN050=



000
FTUS45 KSLC 011747
TAFSGU
TAF
KSGU 011747Z 0118/0218 VRB04KT P6SM VCSH BKN040 BKN060
     FM020000 VRB04KT P6SM -RA SCT010 OVC025
     FM020400 VRB03KT 4SM -RA OVC015
     FM021100 VRB03KT P6SM -SHRA SCT015 OVC025
      AMD LTD TO CLD VIS AND WIND=



000
FTUS45 KSLC 011747
TAFBCE
TAF
KBCE 011747Z 0118/0218 01006KT 2SM -SN BR BKN040 BKN060
      TEMPO 0118/0120 1SM -SN BR OVC009
     FM012000 15010KT 1SM -SN BR SCT009 OVC015
     FM020200 16006KT 1/2SM SN FZFG VV004
     FM021200 18006KT 1SM -SN BR OVC015=



000
FTUS45 KSLC 011747
TAFLGU
TAF
KLGU 011747Z 0118/0218 VRB04KT P6SM SKC
     FM012200 VRB04KT P6SM SCT060
     FM021200 VRB04KT P6SM BKN060 OVC100=



000
FTUS45 KSLC 011747
TAFBCE
TAF
KBCE 011747Z 0118/0218 01006KT 2SM -SN BR BKN040 BKN060
      TEMPO 0118/0120 1SM -SN BR OVC009
     FM012000 15010KT 1SM -SN BR SCT009 OVC015
     FM020200 16006KT 1/2SM SN FZFG VV004
     FM021200 18006KT 1SM -SN BR OVC015=



000
FTUS45 KSLC 011747
TAFOGD
TAF
KOGD 011747Z 0118/0218 VRB05KT P6SM SKC
     FM020300 17005KT P6SM SCT050 BKN080
     FM021400 VRB04KT P6SM VCSH BKN050=



000
FTUS45 KSLC 011747
TAFPVU
TAF
KPVU 011747Z 0118/0218 VRB04KT P6SM VCSH SCT025 BKN060
      TEMPO 0118/0120 P6SM -SN BKN025 BKN050
     FM012000 30006KT P6SM SCT040 BKN080
     FM021300 30007KT 2SM -SN BR BKN015 OVC035
      AMD LTD TO CLD VIS AND WIND=



000
FTUS45 KSLC 011747
TAFPVU
TAF
KPVU 011747Z 0118/0218 VRB04KT P6SM VCSH SCT025 BKN060
      TEMPO 0118/0120 P6SM -SN BKN025 BKN050
     FM012000 30006KT P6SM SCT040 BKN080
     FM021300 30007KT 2SM -SN BR BKN015 OVC035
      AMD LTD TO CLD VIS AND WIND=



000
FTUS45 KSLC 011747
TAFCDC
TAF
KCDC 011747Z 0118/0218 VRB04KT P6SM VCSH SCT015 BKN050
     FM012200 VRB04KT 4SM -SN BR SCT011 BKN025
     FM020200 VRB04KT 1SM -SN BR OVC011
     FM020900 VRB04KT 3/4SM -SN BR VV005=



000
FTUS45 KSLC 011747
TAFSGU
TAF
KSGU 011747Z 0118/0218 VRB04KT P6SM VCSH BKN040 BKN060
     FM020000 VRB04KT P6SM -RA SCT010 OVC025
     FM020400 VRB03KT 4SM -RA OVC015
     FM021100 VRB03KT P6SM -SHRA SCT015 OVC025
      AMD LTD TO CLD VIS AND WIND=



000
FTUS45 KSLC 011747
TAFCDC
TAF
KCDC 011747Z 0118/0218 VRB04KT P6SM VCSH SCT015 BKN050
     FM012200 VRB04KT 4SM -SN BR SCT011 BKN025
     FM020200 VRB04KT 1SM -SN BR OVC011
     FM020900 VRB04KT 3/4SM -SN BR VV005=



000
FTUS45 KSLC 011747
TAFLGU
TAF
KLGU 011747Z 0118/0218 VRB04KT P6SM SKC
     FM012200 VRB04KT P6SM SCT060
     FM021200 VRB04KT P6SM BKN060 OVC100=



000
FTUS45 KSLC 011747
TAFSGU
TAF
KSGU 011747Z 0118/0218 VRB04KT P6SM VCSH BKN040 BKN060
     FM020000 VRB04KT P6SM -RA SCT010 OVC025
     FM020400 VRB03KT 4SM -RA OVC015
     FM021100 VRB03KT P6SM -SHRA SCT015 OVC025
      AMD LTD TO CLD VIS AND WIND=



000
FTUS45 KSLC 011747
TAFSLC
TAF
KSLC 011747Z 0118/0224 32007KT P6SM FEW060
     FM020400 15004KT P6SM SCT060
     FM020900 32004KT P6SM VCSH BKN060
     FM021500 32005KT 3SM -SN BR BKN025 OVC050=



000
FTUS45 KSLC 011747
TAFPVU
TAF
KPVU 011747Z 0118/0218 VRB04KT P6SM VCSH SCT025 BKN060
      TEMPO 0118/0120 P6SM -SN BKN025 BKN050
     FM012000 30006KT P6SM SCT040 BKN080
     FM021300 30007KT 2SM -SN BR BKN015 OVC035
      AMD LTD TO CLD VIS AND WIND=



000
FTUS45 KSLC 011747
TAFENV
TAF
KENV 011747Z 0118/0218 05006KT P6SM BKN060
     FM012000 VRB05KT P6SM SCT060
     FM020800 33005KT P6SM BKN060
      AMD LTD TO CLD VIS AND WIND=



000
FTUS45 KSLC 011747
TAFBCE
TAF
KBCE 011747Z 0118/0218 01006KT 2SM -SN BR BKN040 BKN060
      TEMPO 0118/0120 1SM -SN BR OVC009
     FM012000 15010KT 1SM -SN BR SCT009 OVC015
     FM020200 16006KT 1/2SM SN FZFG VV004
     FM021200 18006KT 1SM -SN BR OVC015=



000
FTUS45 KSLC 011747
TAFENV
TAF
KENV 011747Z 0118/0218 05006KT P6SM BKN060
     FM012000 VRB05KT P6SM SCT060
     FM020800 33005KT P6SM BKN060
      AMD LTD TO CLD VIS AND WIND=



000
FTUS45 KSLC 011747
TAFSLC
TAF
KSLC 011747Z 0118/0224 32007KT P6SM FEW060
     FM020400 15004KT P6SM SCT060
     FM020900 32004KT P6SM VCSH BKN060
     FM021500 32005KT 3SM -SN BR BKN025 OVC050=



000
FTUS45 KSLC 011747
TAFLGU
TAF
KLGU 011747Z 0118/0218 VRB04KT P6SM SKC
     FM012200 VRB04KT P6SM SCT060
     FM021200 VRB04KT P6SM BKN060 OVC100=



000
FTUS45 KSLC 011747
TAFOGD
TAF
KOGD 011747Z 0118/0218 VRB05KT P6SM SKC
     FM020300 17005KT P6SM SCT050 BKN080
     FM021400 VRB04KT P6SM VCSH BKN050=



000
FTUS45 KSLC 011614 AAC
TAFSLC
TAF AMD
KSLC 011614Z 0116/0218 30006KT P6SM SCT060
     FM011800 32007KT P6SM SCT060 BKN100
     FM020600 15004KT P6SM VCSH SCT020 BKN050
     FM021400 32004KT 2SM -SN BR SCT007 BKN015=



000
FTUS45 KSLC 011614 AAC
TAFSLC
TAF AMD
KSLC 011614Z 0116/0218 30006KT P6SM SCT060
     FM011800 32007KT P6SM SCT060 BKN100
     FM020600 15004KT P6SM VCSH SCT020 BKN050
     FM021400 32004KT 2SM -SN BR SCT007 BKN015=



000
FTUS45 KSLC 011501 AAB
TAFBCE
TAF AMD
KBCE 011501Z 0115/0212 01006KT 2SM -SN BR BKN040 BKN060
      TEMPO 0116/0119 1SM -SN BR OVC009
     FM011900 15010KT 1SM -SN BR SCT009 OVC015
     FM020200 16006KT 1/2SM SN FZFG VV004=



000
FTUS45 KSLC 011501 AAB
TAFBCE
TAF AMD
KBCE 011501Z 0115/0212 01006KT 2SM -SN BR BKN040 BKN060
      TEMPO 0116/0119 1SM -SN BR OVC009
     FM011900 15010KT 1SM -SN BR SCT009 OVC015
     FM020200 16006KT 1/2SM SN FZFG VV004=



000
FTUS45 KSLC 011501 AAB
TAFBCE
TAF AMD
KBCE 011501Z 0115/0212 01006KT 2SM -SN BR BKN040 BKN060
      TEMPO 0116/0119 1SM -SN BR OVC009
     FM011900 15010KT 1SM -SN BR SCT009 OVC015
     FM020200 16006KT 1/2SM SN FZFG VV004=



000
FTUS45 KSLC 011501 AAB
TAFBCE
TAF AMD
KBCE 011501Z 0115/0212 01006KT 2SM -SN BR BKN040 BKN060
      TEMPO 0116/0119 1SM -SN BR OVC009
     FM011900 15010KT 1SM -SN BR SCT009 OVC015
     FM020200 16006KT 1/2SM SN FZFG VV004=



000
FTUS45 KSLC 011453 AAA
TAFENV
TAF AMD
KENV 011453Z 0115/0212 05006KT P6SM BKN060
     FM011900 VRB05KT P6SM SCT060 BKN100
      AMD LTD TO CLD VIS AND WIND=



000
FTUS45 KSLC 011453 AAA
TAFENV
TAF AMD
KENV 011453Z 0115/0212 05006KT P6SM BKN060
     FM011900 VRB05KT P6SM SCT060 BKN100
      AMD LTD TO CLD VIS AND WIND=



000
FTUS45 KSLC 011453 AAA
TAFENV
TAF AMD
KENV 011453Z 0115/0212 05006KT P6SM BKN060
     FM011900 VRB05KT P6SM SCT060 BKN100
      AMD LTD TO CLD VIS AND WIND=



000
FTUS45 KSLC 011453 AAA
TAFENV
TAF AMD
KENV 011453Z 0115/0212 05006KT P6SM BKN060
     FM011900 VRB05KT P6SM SCT060 BKN100
      AMD LTD TO CLD VIS AND WIND=



000
FTUS45 KSLC 011446 AAB
TAFSLC
TAF AMD
KSLC 011446Z 0115/0218 30004KT P6SM SCT040 BKN060
     FM011800 32007KT P6SM SCT060 BKN100
     FM020600 15004KT P6SM VCSH SCT020 BKN050
     FM021400 32004KT 2SM -SN BR SCT007 BKN015=



000
FTUS45 KSLC 011446 AAB
TAFSLC
TAF AMD
KSLC 011446Z 0115/0218 30004KT P6SM SCT040 BKN060
     FM011800 32007KT P6SM SCT060 BKN100
     FM020600 15004KT P6SM VCSH SCT020 BKN050
     FM021400 32004KT 2SM -SN BR SCT007 BKN015=



000
FTUS45 KSLC 011203 AAA
TAFBCE
TAF AMD
KBCE 011203Z 0112/0212 01006KT P6SM VCSH SCT030 BKN060
     FM011800 15010KT 2SM -SN BR SCT007 BKN015
     FM020200 16006KT 1SM -SN BR SCT003 BKN007=



000
FTUS45 KSLC 011203 AAA
TAFBCE
TAF AMD
KBCE 011203Z 0112/0212 01006KT P6SM VCSH SCT030 BKN060
     FM011800 15010KT 2SM -SN BR SCT007 BKN015
     FM020200 16006KT 1SM -SN BR SCT003 BKN007=



000
FTUS45 KSLC 011202 AAA
TAFSLC
TAF AMD
KSLC 011202Z 0112/0218 18005KT P6SM SCT040 BKN070
     FM011700 32007KT P6SM SCT040 BKN080
     FM020600 15004KT P6SM VCSH SCT020 BKN050
     FM021400 32004KT 2SM -SN BR SCT007 BKN015=



000
FTUS45 KSLC 011202 AAA
TAFSLC
TAF AMD
KSLC 011202Z 0112/0218 18005KT P6SM SCT040 BKN070
     FM011700 32007KT P6SM SCT040 BKN080
     FM020600 15004KT P6SM VCSH SCT020 BKN050
     FM021400 32004KT 2SM -SN BR SCT007 BKN015=



000
FTUS45 KSLC 011202 AAA
TAFPVU
TAF AMD
KPVU 011202Z 0112/0212 VRB04KT 3SM -SHSN BR SCT007 BKN025
     FM011400 VRB04KT P6SM VCSH SCT020 BKN040
     FM011900 30006KT P6SM SCT040 BKN080
      AMD LTD TO CLD VIS AND WIND=



000
FTUS45 KSLC 011202 AAA
TAFPVU
TAF AMD
KPVU 011202Z 0112/0212 VRB04KT 3SM -SHSN BR SCT007 BKN025
     FM011400 VRB04KT P6SM VCSH SCT020 BKN040
     FM011900 30006KT P6SM SCT040 BKN080
      AMD LTD TO CLD VIS AND WIND=



000
FTUS45 KSLC 011120
TAFPVU
TAF
KPVU 011120Z 0112/0212 VRB04KT 3SM -SHSN BR SCT007 BKN015
     FM011300 VRB04KT P6SM VCSH SCT020 BKN040
     FM011900 30006KT P6SM SCT040 BKN080
      AMD LTD TO CLD VIS AND WIND=



000
FTUS45 KSLC 011120
TAFENV
TAF
KENV 011120Z 0112/0212 01010G18KT P6SM SCT030 BKN060
     FM011900 VRB05KT P6SM SCT060 BKN150
      AMD LTD TO CLD VIS AND WIND=



000
FTUS45 KSLC 011120
TAFSGU
TAF
KSGU 011120Z 0112/0212 VRB05KT P6SM SCT040 BKN080
     FM011800 VRB04KT P6SM VCSH SCT030 BKN060
     FM020000 VRB04KT P6SM -RA SCT010 BKN035
      AMD LTD TO CLD VIS AND WIND=



000
FTUS45 KSLC 011120
TAFLGU
TAF
KLGU 011120Z 0112/0212 VRB04KT P6SM SCT060 BKN150=



000
FTUS45 KSLC 011120
TAFCDC
TAF
KCDC 011120Z 0112/0212 VRB04KT P6SM VCSH SCT015 BKN050
     FM011900 VRB04KT 2SM -SN BR SCT007 BKN015
     FM020200 VRB04KT 1SM -SN BR SCT003 BKN007=



000
FTUS45 KSLC 011120
TAFLGU
TAF
KLGU 011120Z 0112/0212 VRB04KT P6SM SCT060 BKN150=



000
FTUS45 KSLC 011120
TAFOGD
TAF
KOGD 011120Z 0112/0212 01007KT P6SM SCT060 BKN100
     FM011500 32006KT P6SM SCT060 BKN100
     FM020300 15005KT P6SM SCT040 BKN080=



000
FTUS45 KSLC 011120
TAFSLC
TAF
KSLC 011120Z 0112/0218 33003KT 6SM BR SCT020 BKN040
     FM011400 18005KT P6SM SCT040 BKN080
     FM011700 32007KT P6SM SCT040 BKN080
     FM020600 15004KT P6SM VCSH SCT020 BKN050
     FM021400 32004KT 2SM -SN BR SCT007 BKN015=



000
FTUS45 KSLC 011120
TAFOGD
TAF
KOGD 011120Z 0112/0212 01007KT P6SM SCT060 BKN100
     FM011500 32006KT P6SM SCT060 BKN100
     FM020300 15005KT P6SM SCT040 BKN080=



000
FTUS45 KSLC 011120
TAFBCE
TAF
KBCE 011120Z 0112/0212 33004KT P6SM VCSH BKN025 BKN040
     FM011400 27005KT P6SM VCSH SCT020 BKN040
     FM011800 15010KT 2SM -SN BR SCT007 BKN015
     FM020200 16006KT 1SM -SN BR SCT003 BKN007=



000
FTUS45 KSLC 011120
TAFCDC
TAF
KCDC 011120Z 0112/0212 VRB04KT P6SM VCSH SCT015 BKN050
     FM011900 VRB04KT 2SM -SN BR SCT007 BKN015
     FM020200 VRB04KT 1SM -SN BR SCT003 BKN007=



000
FTUS45 KSLC 011120
TAFSLC
TAF
KSLC 011120Z 0112/0218 33003KT 6SM BR SCT020 BKN040
     FM011400 18005KT P6SM SCT040 BKN080
     FM011700 32007KT P6SM SCT040 BKN080
     FM020600 15004KT P6SM VCSH SCT020 BKN050
     FM021400 32004KT 2SM -SN BR SCT007 BKN015=



000
FTUS45 KSLC 011120
TAFSGU
TAF
KSGU 011120Z 0112/0212 VRB05KT P6SM SCT040 BKN080
     FM011800 VRB04KT P6SM VCSH SCT030 BKN060
     FM020000 VRB04KT P6SM -RA SCT010 BKN035
      AMD LTD TO CLD VIS AND WIND=



000
FTUS45 KSLC 011120
TAFPVU
TAF
KPVU 011120Z 0112/0212 VRB04KT 3SM -SHSN BR SCT007 BKN015
     FM011300 VRB04KT P6SM VCSH SCT020 BKN040
     FM011900 30006KT P6SM SCT040 BKN080
      AMD LTD TO CLD VIS AND WIND=



000
FTUS45 KSLC 011120
TAFBCE
TAF
KBCE 011120Z 0112/0212 33004KT P6SM VCSH BKN025 BKN040
     FM011400 27005KT P6SM VCSH SCT020 BKN040
     FM011800 15010KT 2SM -SN BR SCT007 BKN015
     FM020200 16006KT 1SM -SN BR SCT003 BKN007=



000
FTUS45 KSLC 011120
TAFENV
TAF
KENV 011120Z 0112/0212 01010G18KT P6SM SCT030 BKN060
     FM011900 VRB05KT P6SM SCT060 BKN150
      AMD LTD TO CLD VIS AND WIND=



000
FTUS45 KSLC 011059 AAC
TAFSLC
TAF AMD
KSLC 011059Z 0111/0212 18005KT 6SM BR SCT020 BKN040
     FM011300 18005KT P6SM SCT040 BKN080
     FM011700 32007KT P6SM SCT040 BKN080=



000
FTUS45 KSLC 011059 AAC
TAFSLC
TAF AMD
KSLC 011059Z 0111/0212 18005KT 6SM BR SCT020 BKN040
     FM011300 18005KT P6SM SCT040 BKN080
     FM011700 32007KT P6SM SCT040 BKN080=



000
FTUS45 KSLC 011002 AAB
TAFPVU
TAF AMD
KPVU 011002Z 0110/0206 VRB04KT P6SM VCSH SCT020 BKN050
      TEMPO 0110/0111 2SM -SN BR BKN004
     FM011900 30006KT P6SM SCT040 BKN080
      AMD LTD TO CLD VIS AND WIND=



000
FTUS45 KSLC 011002 AAB
TAFPVU
TAF AMD
KPVU 011002Z 0110/0206 VRB04KT P6SM VCSH SCT020 BKN050
      TEMPO 0110/0111 2SM -SN BR BKN004
     FM011900 30006KT P6SM SCT040 BKN080
      AMD LTD TO CLD VIS AND WIND=



000
FTUS45 KSLC 011002 AAB
TAFPVU
TAF AMD
KPVU 011002Z 0110/0206 VRB04KT P6SM VCSH SCT020 BKN050
      TEMPO 0110/0111 2SM -SN BR BKN004
     FM011900 30006KT P6SM SCT040 BKN080
      AMD LTD TO CLD VIS AND WIND=



000
FTUS45 KSLC 011002 AAB
TAFPVU
TAF AMD
KPVU 011002Z 0110/0206 VRB04KT P6SM VCSH SCT020 BKN050
      TEMPO 0110/0111 2SM -SN BR BKN004
     FM011900 30006KT P6SM SCT040 BKN080
      AMD LTD TO CLD VIS AND WIND=



000
FTUS45 KSLC 010948 AAB
TAFBCE
TAF AMD
KBCE 010948Z 0110/0206 22006KT P6SM VCSH SCT020 BKN040
      TEMPO 0110/0111 2SM -SN BR BKN025
     FM011800 15010KT 2SM -SN BR SCT007 BKN015
     FM020200 16006KT 1SM -SN BR SCT003 BKN007=



000
FTUS45 KSLC 010948 AAB
TAFBCE
TAF AMD
KBCE 010948Z 0110/0206 22006KT P6SM VCSH SCT020 BKN040
      TEMPO 0110/0111 2SM -SN BR BKN025
     FM011800 15010KT 2SM -SN BR SCT007 BKN015
     FM020200 16006KT 1SM -SN BR SCT003 BKN007=



000
FTUS45 KSLC 010905 AAB
TAFSLC
TAF AMD
KSLC 010905Z 0109/0212 18005KT P6SM VCSH SCT020 BKN070
     FM011600 32007KT P6SM SCT040 BKN080=



000
FTUS45 KSLC 010905 AAB
TAFSLC
TAF AMD
KSLC 010905Z 0109/0212 18005KT P6SM VCSH SCT020 BKN070
     FM011600 32007KT P6SM SCT040 BKN080=



000
FTUS45 KSLC 010905 AAB
TAFSLC
TAF AMD
KSLC 010905Z 0109/0212 18005KT P6SM VCSH SCT020 BKN070
     FM011600 32007KT P6SM SCT040 BKN080=



000
FTUS45 KSLC 010846 AAA
TAFBCE
TAF AMD
KBCE 010846Z 0109/0206 22006KT P6SM VCSH SCT020 BKN040
     FM011800 15010KT 2SM -SN BR SCT007 BKN015
     FM020200 16006KT 1SM -SN BR SCT003 BKN007=



000
FTUS45 KSLC 010846 AAA
TAFBCE
TAF AMD
KBCE 010846Z 0109/0206 22006KT P6SM VCSH SCT020 BKN040
     FM011800 15010KT 2SM -SN BR SCT007 BKN015
     FM020200 16006KT 1SM -SN BR SCT003 BKN007=



000
FTUS45 KSLC 010628 AAA
TAFCDC
TAF AMD
KCDC 010628Z 0106/0206 VRB04KT P6SM VCSH SCT015 BKN050
     FM011900 VRB04KT 2SM -SN BR SCT007 BKN015
     FM020200 VRB04KT 1SM -SN BR SCT003 BKN007=



000
FTUS45 KSLC 010628 AAA
TAFCDC
TAF AMD
KCDC 010628Z 0106/0206 VRB04KT P6SM VCSH SCT015 BKN050
     FM011900 VRB04KT 2SM -SN BR SCT007 BKN015
     FM020200 VRB04KT 1SM -SN BR SCT003 BKN007=



000
FTUS45 KSLC 010628 AAA
TAFPVU
TAF AMD
KPVU 010628Z 0106/0206 VRB04KT P6SM VCSH SCT020 BKN050
     FM011900 30006KT P6SM SCT040 BKN080
      AMD LTD TO CLD VIS AND WIND=



000
FTUS45 KSLC 010628 AAA
TAFCDC
TAF AMD
KCDC 010628Z 0106/0206 VRB04KT P6SM VCSH SCT015 BKN050
     FM011900 VRB04KT 2SM -SN BR SCT007 BKN015
     FM020200 VRB04KT 1SM -SN BR SCT003 BKN007=



000
FTUS45 KSLC 010628 AAA
TAFCDC
TAF AMD
KCDC 010628Z 0106/0206 VRB04KT P6SM VCSH SCT015 BKN050
     FM011900 VRB04KT 2SM -SN BR SCT007 BKN015
     FM020200 VRB04KT 1SM -SN BR SCT003 BKN007=



000
FTUS45 KSLC 010628 AAA
TAFPVU
TAF AMD
KPVU 010628Z 0106/0206 VRB04KT P6SM VCSH SCT020 BKN050
     FM011900 30006KT P6SM SCT040 BKN080
      AMD LTD TO CLD VIS AND WIND=



000
FTUS45 KSLC 010628 AAA
TAFPVU
TAF AMD
KPVU 010628Z 0106/0206 VRB04KT P6SM VCSH SCT020 BKN050
     FM011900 30006KT P6SM SCT040 BKN080
      AMD LTD TO CLD VIS AND WIND=



000
FTUS45 KSLC 010627 AAA
TAFSLC
TAF AMD
KSLC 010627Z 0106/0212 18005KT P6SM VCSH SCT020 BKN070
     FM011600 32007KT P6SM SCT040 BKN080=



000
FTUS45 KSLC 010627 AAA
TAFSLC
TAF AMD
KSLC 010627Z 0106/0212 18005KT P6SM VCSH SCT020 BKN070
     FM011600 32007KT P6SM SCT040 BKN080=



000
FTUS45 KSLC 010627 AAA
TAFSLC
TAF AMD
KSLC 010627Z 0106/0212 18005KT P6SM VCSH SCT020 BKN070
     FM011600 32007KT P6SM SCT040 BKN080=



000
FTUS45 KSLC 010627 AAA
TAFSLC
TAF AMD
KSLC 010627Z 0106/0212 18005KT P6SM VCSH SCT020 BKN070
     FM011600 32007KT P6SM SCT040 BKN080=



000
FTUS45 KSLC 010527
TAFBCE
TAF
KBCE 010527Z 0106/0206 17005KT 1/2SM FZFG BKN001
     FM011200 22006KT P6SM VCSH SCT020 BKN040
     FM011800 15010KT 2SM -SN BR SCT007 BKN015
     FM020200 16006KT 1SM -SN BR SCT003 BKN007=



000
FTUS45 KSLC 010527
TAFLGU
TAF
KLGU 010527Z 0106/0206 VRB04KT P6SM SCT030 BKN060
     FM011800 VRB04KT P6SM SCT060 BKN150=



000
FTUS45 KSLC 010527
TAFSGU
TAF
KSGU 010527Z 0106/0206 VRB05KT P6SM SCT040 BKN080
     FM011800 VRB04KT P6SM VCSH SCT030 BKN060
     FM020000 VRB04KT P6SM -RA SCT010 BKN035
      AMD LTD TO CLD VIS AND WIND=



000
FTUS45 KSLC 010527
TAFENV
TAF
KENV 010527Z 0106/0206 VRB04KT P6SM SCT040 BKN080
     FM011900 VRB05KT P6SM SCT060 BKN150
      AMD LTD TO CLD VIS AND WIND=



000
FTUS45 KSLC 010527
TAFOGD
TAF
KOGD 010527Z 0106/0206 16010KT P6SM SCT040 BKN080
     FM011500 32006KT P6SM SCT060 BKN100
     FM020300 15005KT P6SM SCT060 BKN100=



000
FTUS45 KSLC 010527
TAFSLC
TAF
KSLC 010527Z 0106/0212 18005KT P6SM VCSH SCT020 BKN050
     FM011600 32007KT P6SM SCT040 BKN080=



000
FTUS45 KSLC 010527
TAFBCE
TAF
KBCE 010527Z 0106/0206 17005KT 1/2SM FZFG BKN001
     FM011200 22006KT P6SM VCSH SCT020 BKN040
     FM011800 15010KT 2SM -SN BR SCT007 BKN015
     FM020200 16006KT 1SM -SN BR SCT003 BKN007=



000
FTUS45 KSLC 010527
TAFOGD
TAF
KOGD 010527Z 0106/0206 16010KT P6SM SCT040 BKN080
     FM011500 32006KT P6SM SCT060 BKN100
     FM020300 15005KT P6SM SCT060 BKN100=



000
FTUS45 KSLC 010527
TAFPVU
TAF
KPVU 010527Z 0106/0206 VRB05KT 5SM -SHSN BR SCT007 BKN025
     FM010800 VRB04KT P6SM VCSH SCT020 BKN050
     FM011900 30006KT P6SM SCT040 BKN080
      AMD LTD TO CLD VIS AND WIND=



000
FTUS45 KSLC 010527
TAFCDC
TAF
KCDC 010527Z 0106/0206 VRB04KT P6SM VCSH BKN015 BKN080
     FM010800 VRB04KT P6SM VCSH SCT015 BKN050
     FM011900 VRB04KT 2SM -SN BR SCT007 BKN015
     FM020200 VRB04KT 1SM -SN BR SCT003 BKN007=



000
FTUS45 KSLC 010527
TAFLGU
TAF
KLGU 010527Z 0106/0206 VRB04KT P6SM SCT030 BKN060
     FM011800 VRB04KT P6SM SCT060 BKN150=



000
FTUS45 KSLC 010527
TAFPVU
TAF
KPVU 010527Z 0106/0206 VRB05KT 5SM -SHSN BR SCT007 BKN025
     FM010800 VRB04KT P6SM VCSH SCT020 BKN050
     FM011900 30006KT P6SM SCT040 BKN080
      AMD LTD TO CLD VIS AND WIND=



000
FTUS45 KSLC 010527
TAFENV
TAF
KENV 010527Z 0106/0206 VRB04KT P6SM SCT040 BKN080
     FM011900 VRB05KT P6SM SCT060 BKN150
      AMD LTD TO CLD VIS AND WIND=



000
FTUS45 KSLC 010527
TAFSLC
TAF
KSLC 010527Z 0106/0212 18005KT P6SM VCSH SCT020 BKN050
     FM011600 32007KT P6SM SCT040 BKN080=



000
FTUS45 KSLC 010527
TAFCDC
TAF
KCDC 010527Z 0106/0206 VRB04KT P6SM VCSH BKN015 BKN080
     FM010800 VRB04KT P6SM VCSH SCT015 BKN050
     FM011900 VRB04KT 2SM -SN BR SCT007 BKN015
     FM020200 VRB04KT 1SM -SN BR SCT003 BKN007=



000
FTUS45 KSLC 010527
TAFCDC
TAF
KCDC 010527Z 0106/0206 VRB04KT P6SM VCSH BKN015 BKN080
     FM010800 VRB04KT P6SM VCSH SCT015 BKN050
     FM011900 VRB04KT 2SM -SN BR SCT007 BKN015
     FM020200 VRB04KT 1SM -SN BR SCT003 BKN007=



000
FTUS45 KSLC 010527
TAFPVU
TAF
KPVU 010527Z 0106/0206 VRB05KT 5SM -SHSN BR SCT007 BKN025
     FM010800 VRB04KT P6SM VCSH SCT020 BKN050
     FM011900 30006KT P6SM SCT040 BKN080
      AMD LTD TO CLD VIS AND WIND=



000
FTUS45 KSLC 010527
TAFBCE
TAF
KBCE 010527Z 0106/0206 17005KT 1/2SM FZFG BKN001
     FM011200 22006KT P6SM VCSH SCT020 BKN040
     FM011800 15010KT 2SM -SN BR SCT007 BKN015
     FM020200 16006KT 1SM -SN BR SCT003 BKN007=



000
FTUS45 KSLC 010527
TAFLGU
TAF
KLGU 010527Z 0106/0206 VRB04KT P6SM SCT030 BKN060
     FM011800 VRB04KT P6SM SCT060 BKN150=



000
FTUS45 KSLC 010527
TAFOGD
TAF
KOGD 010527Z 0106/0206 16010KT P6SM SCT040 BKN080
     FM011500 32006KT P6SM SCT060 BKN100
     FM020300 15005KT P6SM SCT060 BKN100=



000
FTUS45 KSLC 010527
TAFSGU
TAF
KSGU 010527Z 0106/0206 VRB05KT P6SM SCT040 BKN080
     FM011800 VRB04KT P6SM VCSH SCT030 BKN060
     FM020000 VRB04KT P6SM -RA SCT010 BKN035
      AMD LTD TO CLD VIS AND WIND=



000
FTUS45 KSLC 010527
TAFENV
TAF
KENV 010527Z 0106/0206 VRB04KT P6SM SCT040 BKN080
     FM011900 VRB05KT P6SM SCT060 BKN150
      AMD LTD TO CLD VIS AND WIND=



000
FTUS45 KSLC 010527
TAFSGU
TAF
KSGU 010527Z 0106/0206 VRB05KT P6SM SCT040 BKN080
     FM011800 VRB04KT P6SM VCSH SCT030 BKN060
     FM020000 VRB04KT P6SM -RA SCT010 BKN035
      AMD LTD TO CLD VIS AND WIND=



000
FTUS45 KSLC 010527
TAFSLC
TAF
KSLC 010527Z 0106/0212 18005KT P6SM VCSH SCT020 BKN050
     FM011600 32007KT P6SM SCT040 BKN080=



000
FTUS45 KSLC 010527
TAFBCE
TAF
KBCE 010527Z 0106/0206 17005KT 1/2SM FZFG BKN001
     FM011200 22006KT P6SM VCSH SCT020 BKN040
     FM011800 15010KT 2SM -SN BR SCT007 BKN015
     FM020200 16006KT 1SM -SN BR SCT003 BKN007=



000
FTUS45 KSLC 010459 AAB
TAFCDC
TAF AMD
KCDC 010459Z 0105/0124 09006KT 1SM BR BKN009
     FM011400 32006KT P6SM VCSH SCT030 BKN080=



000
FTUS45 KSLC 010459 AAA
TAFBCE
TAF AMD
KBCE 010459Z 0105/0124 17005KT 1/4SM FZFG BKN002
     FM011200 22006KT P6SM VCSH SCT020 BKN040=



000
FTUS45 KSLC 010459 AAA
TAFBCE
TAF AMD
KBCE 010459Z 0105/0124 17005KT 1/4SM FZFG BKN002
     FM011200 22006KT P6SM VCSH SCT020 BKN040=



000
FTUS45 KSLC 010459 AAB
TAFCDC
TAF AMD
KCDC 010459Z 0105/0124 09006KT 1SM BR BKN009
     FM011400 32006KT P6SM VCSH SCT030 BKN080=



000
FTUS45 KSLC 010459 AAB
TAFCDC
TAF AMD
KCDC 010459Z 0105/0124 09006KT 1SM BR BKN009
     FM011400 32006KT P6SM VCSH SCT030 BKN080=



000
FTUS45 KSLC 010459 AAA
TAFBCE
TAF AMD
KBCE 010459Z 0105/0124 17005KT 1/4SM FZFG BKN002
     FM011200 22006KT P6SM VCSH SCT020 BKN040=



000
FTUS45 KSLC 010459 AAA
TAFBCE
TAF AMD
KBCE 010459Z 0105/0124 17005KT 1/4SM FZFG BKN002
     FM011200 22006KT P6SM VCSH SCT020 BKN040=



000
FTUS45 KSLC 010459 AAB
TAFCDC
TAF AMD
KCDC 010459Z 0105/0124 09006KT 1SM BR BKN009
     FM011400 32006KT P6SM VCSH SCT030 BKN080=



000
FTUS45 KSLC 010443 AAA
TAFCDC
TAF AMD
KCDC 010443Z 0105/0124 09006KT 1/4SM FZFG VV006
     FM011400 32006KT P6SM VCSH SCT030 BKN080=



000
FTUS45 KSLC 010443 AAA
TAFCDC
TAF AMD
KCDC 010443Z 0105/0124 09006KT 1/4SM FZFG VV006
     FM011400 32006KT P6SM VCSH SCT030 BKN080=



000
FTUS45 KSLC 010443 AAA
TAFCDC
TAF AMD
KCDC 010443Z 0105/0124 09006KT 1/4SM FZFG VV006
     FM011400 32006KT P6SM VCSH SCT030 BKN080=



000
FTUS45 KSLC 010253 AAB
TAFSLC
TAF AMD
KSLC 010253Z 0103/0206 18007KT P6SM -SHRASN SCT020 BKN040
     FM010600 14005KT P6SM -SHSN SCT020 BKN040
     FM010900 14005KT P6SM -SHSN SCT020 BKN030
     FM011400 16008KT P6SM VCSH BKN050=



000
FTUS45 KSLC 010253 AAB
TAFSLC
TAF AMD
KSLC 010253Z 0103/0206 18007KT P6SM -SHRASN SCT020 BKN040
     FM010600 14005KT P6SM -SHSN SCT020 BKN040
     FM010900 14005KT P6SM -SHSN SCT020 BKN030
     FM011400 16008KT P6SM VCSH BKN050=



000
FTUS45 KSLC 010253 AAB
TAFSLC
TAF AMD
KSLC 010253Z 0103/0206 18007KT P6SM -SHRASN SCT020 BKN040
     FM010600 14005KT P6SM -SHSN SCT020 BKN040
     FM010900 14005KT P6SM -SHSN SCT020 BKN030
     FM011400 16008KT P6SM VCSH BKN050=



000
FTUS45 KSLC 010231 AAB
TAFPVU
TAF AMD
KPVU 010231Z 0103/0124 VRB05KT P6SM VCSH BKN035
     FM010700 VRB05KT 2SM -SN OVC020
     FM011300 16006KT P6SM VCSH BKN050
      AMD LTD TO CLD VIS AND WIND=



000
FTUS45 KSLC 010231 AAA
TAFENV
TAF AMD
KENV 010231Z 0103/0124 32005KT P6SM SCT030 BKN040
     FM010300 36005KT P6SM SCT060 BKN100
      AMD LTD TO CLD VIS AND WIND=



000
FTUS45 KSLC 010231 AAB
TAFPVU
TAF AMD
KPVU 010231Z 0103/0124 VRB05KT P6SM VCSH BKN035
     FM010700 VRB05KT 2SM -SN OVC020
     FM011300 16006KT P6SM VCSH BKN050
      AMD LTD TO CLD VIS AND WIND=



000
FTUS45 KSLC 010231 AAA
TAFENV
TAF AMD
KENV 010231Z 0103/0124 32005KT P6SM SCT030 BKN040
     FM010300 36005KT P6SM SCT060 BKN100
      AMD LTD TO CLD VIS AND WIND=



000
FTUS45 KSLC 010231 AAA
TAFENV
TAF AMD
KENV 010231Z 0103/0124 32005KT P6SM SCT030 BKN040
     FM010300 36005KT P6SM SCT060 BKN100
      AMD LTD TO CLD VIS AND WIND=



000
FTUS45 KSLC 010231 AAB
TAFPVU
TAF AMD
KPVU 010231Z 0103/0124 VRB05KT P6SM VCSH BKN035
     FM010700 VRB05KT 2SM -SN OVC020
     FM011300 16006KT P6SM VCSH BKN050
      AMD LTD TO CLD VIS AND WIND=



000
FTUS45 KSLC 010231 AAB
TAFPVU
TAF AMD
KPVU 010231Z 0103/0124 VRB05KT P6SM VCSH BKN035
     FM010700 VRB05KT 2SM -SN OVC020
     FM011300 16006KT P6SM VCSH BKN050
      AMD LTD TO CLD VIS AND WIND=



000
FTUS45 KSLC 010231 AAA
TAFENV
TAF AMD
KENV 010231Z 0103/0124 32005KT P6SM SCT030 BKN040
     FM010300 36005KT P6SM SCT060 BKN100
      AMD LTD TO CLD VIS AND WIND=



000
FTUS45 KSLC 010057 AAA
TAFPVU
TAF AMD
KPVU 010057Z 0101/0124 31012KT P6SM VCSH BKN020
     FM010700 VRB05KT 2SM -SN OVC020
     FM011300 16006KT P6SM VCSH BKN050
      AMD LTD TO CLD VIS AND WIND=



000
FTUS45 KSLC 010057 AAA
TAFPVU
TAF AMD
KPVU 010057Z 0101/0124 31012KT P6SM VCSH BKN020
     FM010700 VRB05KT 2SM -SN OVC020
     FM011300 16006KT P6SM VCSH BKN050
      AMD LTD TO CLD VIS AND WIND=



000
FTUS45 KSLC 010057 AAA
TAFPVU
TAF AMD
KPVU 010057Z 0101/0124 31012KT P6SM VCSH BKN020
     FM010700 VRB05KT 2SM -SN OVC020
     FM011300 16006KT P6SM VCSH BKN050
      AMD LTD TO CLD VIS AND WIND=



000
FTUS45 KSLC 010057 AAA
TAFPVU
TAF AMD
KPVU 010057Z 0101/0124 31012KT P6SM VCSH BKN020
     FM010700 VRB05KT 2SM -SN OVC020
     FM011300 16006KT P6SM VCSH BKN050
      AMD LTD TO CLD VIS AND WIND=



000
FTUS45 KSLC 282333
TAFLGU
TAF
KLGU 282333Z 0100/0124 10010KT P6SM SCT060 BKN100=



000
FTUS45 KSLC 282333
TAFSGU
TAF
KSGU 282333Z 0100/0124 22010KT P6SM VCSH SCT030 BKN060
     FM010300 VRB04KT P6SM SCT040 BKN080
      AMD LTD TO CLD VIS AND WIND=



000
FTUS45 KSLC 282333
TAFBCE
TAF
KBCE 282333Z 0100/0124 25015G25KT 1SM -SN BR BKN020 BKN060
     FM010200 27007KT P6SM VCSH SCT020 BKN040=



000
FTUS45 KSLC 282333
TAFLGU
TAF
KLGU 282333Z 0100/0124 10010KT P6SM SCT060 BKN100=



000
FTUS45 KSLC 282333
TAFOGD
TAF
KOGD 282333Z 0100/0124 14010KT P6SM BKN060 BKN100
     FM010700 14005KT P6SM OVC050=



000
FTUS45 KSLC 282333
TAFSGU
TAF
KSGU 282333Z 0100/0124 22010KT P6SM VCSH SCT030 BKN060
     FM010300 VRB04KT P6SM SCT040 BKN080
      AMD LTD TO CLD VIS AND WIND=



000
FTUS45 KSLC 282333
TAFENV
TAF
KENV 282333Z 0100/0124 01015KT P6SM SCT030 BKN040
     FM010300 36008KT P6SM SCT060 BKN100
      AMD LTD TO CLD VIS AND WIND=



000
FTUS45 KSLC 282333
TAFBCE
TAF
KBCE 282333Z 0100/0124 25015G25KT 1SM -SN BR BKN020 BKN060
     FM010200 27007KT P6SM VCSH SCT020 BKN040=



000
FTUS45 KSLC 282333
TAFPVU
TAF
KPVU 282333Z 0100/0124 31012KT P6SM VCSH BKN040
     FM010700 VRB05KT 2SM -SN OVC020
     FM011300 16006KT P6SM VCSH BKN050
      AMD LTD TO CLD VIS AND WIND=



000
FTUS45 KSLC 282333
TAFSLC
TAF
KSLC 282333Z 0100/0206 35005KT P6SM VCSH SCT020 BKN040
     FM010600 14005KT P6SM VCSH SCT020 BKN040
     FM010900 14005KT P6SM -SHSN SCT020 BKN030
     FM011400 16008KT P6SM VCSH BKN050=



000
FTUS45 KSLC 282333
TAFCDC
TAF
KCDC 282333Z 0100/0124 18006KT P6SM VCSH SCT030 BKN080=



000
FTUS45 KSLC 282333
TAFLGU
TAF
KLGU 282333Z 0100/0124 10010KT P6SM SCT060 BKN100=



000
FTUS45 KSLC 282333
TAFSGU
TAF
KSGU 282333Z 0100/0124 22010KT P6SM VCSH SCT030 BKN060
     FM010300 VRB04KT P6SM SCT040 BKN080
      AMD LTD TO CLD VIS AND WIND=



000
FTUS45 KSLC 282333
TAFOGD
TAF
KOGD 282333Z 0100/0124 14010KT P6SM BKN060 BKN100
     FM010700 14005KT P6SM OVC050=



000
FTUS45 KSLC 282333
TAFOGD
TAF
KOGD 282333Z 0100/0124 14010KT P6SM BKN060 BKN100
     FM010700 14005KT P6SM OVC050=



000
FTUS45 KSLC 282333
TAFSLC
TAF
KSLC 282333Z 0100/0206 35005KT P6SM VCSH SCT020 BKN040
     FM010600 14005KT P6SM VCSH SCT020 BKN040
     FM010900 14005KT P6SM -SHSN SCT020 BKN030
     FM011400 16008KT P6SM VCSH BKN050=



000
FTUS45 KSLC 282333
TAFLGU
TAF
KLGU 282333Z 0100/0124 10010KT P6SM SCT060 BKN100=



000
FTUS45 KSLC 282333
TAFSLC
TAF
KSLC 282333Z 0100/0206 35005KT P6SM VCSH SCT020 BKN040
     FM010600 14005KT P6SM VCSH SCT020 BKN040
     FM010900 14005KT P6SM -SHSN SCT020 BKN030
     FM011400 16008KT P6SM VCSH BKN050=



000
FTUS45 KSLC 282333
TAFSLC
TAF
KSLC 282333Z 0100/0206 35005KT P6SM VCSH SCT020 BKN040
     FM010600 14005KT P6SM VCSH SCT020 BKN040
     FM010900 14005KT P6SM -SHSN SCT020 BKN030
     FM011400 16008KT P6SM VCSH BKN050=



000
FTUS45 KSLC 282333
TAFENV
TAF
KENV 282333Z 0100/0124 01015KT P6SM SCT030 BKN040
     FM010300 36008KT P6SM SCT060 BKN100
      AMD LTD TO CLD VIS AND WIND=



000
FTUS45 KSLC 282333
TAFCDC
TAF
KCDC 282333Z 0100/0124 18006KT P6SM VCSH SCT030 BKN080=



000
FTUS45 KSLC 282333
TAFPVU
TAF
KPVU 282333Z 0100/0124 31012KT P6SM VCSH BKN040
     FM010700 VRB05KT 2SM -SN OVC020
     FM011300 16006KT P6SM VCSH BKN050
      AMD LTD TO CLD VIS AND WIND=



000
FTUS45 KSLC 282333
TAFPVU
TAF
KPVU 282333Z 0100/0124 31012KT P6SM VCSH BKN040
     FM010700 VRB05KT 2SM -SN OVC020
     FM011300 16006KT P6SM VCSH BKN050
      AMD LTD TO CLD VIS AND WIND=



000
FTUS45 KSLC 282333
TAFCDC
TAF
KCDC 282333Z 0100/0124 18006KT P6SM VCSH SCT030 BKN080=



000
FTUS45 KSLC 282333
TAFSGU
TAF
KSGU 282333Z 0100/0124 22010KT P6SM VCSH SCT030 BKN060
     FM010300 VRB04KT P6SM SCT040 BKN080
      AMD LTD TO CLD VIS AND WIND=



000
FTUS45 KSLC 282333
TAFPVU
TAF
KPVU 282333Z 0100/0124 31012KT P6SM VCSH BKN040
     FM010700 VRB05KT 2SM -SN OVC020
     FM011300 16006KT P6SM VCSH BKN050
      AMD LTD TO CLD VIS AND WIND=



000
FTUS45 KSLC 282333
TAFBCE
TAF
KBCE 282333Z 0100/0124 25015G25KT 1SM -SN BR BKN020 BKN060
     FM010200 27007KT P6SM VCSH SCT020 BKN040=



000
FTUS45 KSLC 282333
TAFBCE
TAF
KBCE 282333Z 0100/0124 25015G25KT 1SM -SN BR BKN020 BKN060
     FM010200 27007KT P6SM VCSH SCT020 BKN040=



000
FTUS45 KSLC 282333
TAFCDC
TAF
KCDC 282333Z 0100/0124 18006KT P6SM VCSH SCT030 BKN080=



000
FTUS45 KSLC 282333
TAFENV
TAF
KENV 282333Z 0100/0124 01015KT P6SM SCT030 BKN040
     FM010300 36008KT P6SM SCT060 BKN100
      AMD LTD TO CLD VIS AND WIND=



000
FTUS45 KSLC 282333
TAFOGD
TAF
KOGD 282333Z 0100/0124 14010KT P6SM BKN060 BKN100
     FM010700 14005KT P6SM OVC050=



000
FTUS45 KSLC 282333
TAFENV
TAF
KENV 282333Z 0100/0124 01015KT P6SM SCT030 BKN040
     FM010300 36008KT P6SM SCT060 BKN100
      AMD LTD TO CLD VIS AND WIND=



000
FTUS45 KSLC 282112 AAB
TAFSLC
TAF AMD
KSLC 282112Z 2821/0124 14008KT P6SM BKN060 OVC100
     FM010200 14005KT P6SM VCSH OVC050
     FM010900 14005KT 3SM -SN OVC030
     FM011400 16008KT P6SM BKN050=



000
FTUS45 KSLC 282112 AAB
TAFSLC
TAF AMD
KSLC 282112Z 2821/0124 14008KT P6SM BKN060 OVC100
     FM010200 14005KT P6SM VCSH OVC050
     FM010900 14005KT 3SM -SN OVC030
     FM011400 16008KT P6SM BKN050=



000
FTUS45 KSLC 282112 AAB
TAFSLC
TAF AMD
KSLC 282112Z 2821/0124 14008KT P6SM BKN060 OVC100
     FM010200 14005KT P6SM VCSH OVC050
     FM010900 14005KT 3SM -SN OVC030
     FM011400 16008KT P6SM BKN050=



000
FTUS45 KSLC 282014 AAA
TAFCDC
TAF AMD
KCDC 282014Z 2820/0118 18012KT 2SM -SN SCT006 OVC015
      TEMPO 2820/2822 1/2SM SN VV008
     FM282200 18012KT P6SM VCSH SCT020 BKN040
     FM010000 18006KT P6SM SCT030 BKN080=



000
FTUS45 KSLC 282014 AAA
TAFCDC
TAF AMD
KCDC 282014Z 2820/0118 18012KT 2SM -SN SCT006 OVC015
      TEMPO 2820/2822 1/2SM SN VV008
     FM282200 18012KT P6SM VCSH SCT020 BKN040
     FM010000 18006KT P6SM SCT030 BKN080=



000
FTUS45 KSLC 281740
TAFCDC
TAF
KCDC 281740Z 2818/0118 18012KT 1SM -SN SCT006 OVC015
      TEMPO 2818/2820 1/2SM SN VV008
     FM282000 18012KT P6SM VCSH SCT020 BKN040
     FM282200 18006KT P6SM SCT030 BKN080=



000
FTUS45 KSLC 281740
TAFENV
TAF
KENV 281740Z 2818/0118 06009KT P6SM SCT030 BKN060
      TEMPO 2820/2824 3SM -SHSN OVC030
     FM010300 36008KT P6SM SCT060 BKN100
      AMD LTD TO CLD VIS AND WIND=



000
FTUS45 KSLC 281740
TAFSGU
TAF
KSGU 281740Z 2818/0118 VRB05KT P6SM -RA SCT030 OVC050
     FM282000 22010KT P6SM VCSH SCT030 BKN060
     FM010300 VRB04KT P6SM SCT040 BKN080
      AMD LTD TO CLD VIS AND WIND=



000
FTUS45 KSLC 281740
TAFCDC
TAF
KCDC 281740Z 2818/0118 18012KT 1SM -SN SCT006 OVC015
      TEMPO 2818/2820 1/2SM SN VV008
     FM282000 18012KT P6SM VCSH SCT020 BKN040
     FM282200 18006KT P6SM SCT030 BKN080=



000
FTUS45 KSLC 281740
TAFOGD
TAF
KOGD 281740Z 2818/0118 04010KT P6SM SCT060 BKN100
     FM010700 14005KT P6SM OVC050
     FM011000 14005KT P6SM VCSH OVC040=



000
FTUS45 KSLC 281740
TAFBCE
TAF
KBCE 281740Z 2818/0118 18012KT 1SM -SN SCT006 OVC015
      TEMPO 2818/2820 1/2SM SN VV008
     FM282300 18012KT P6SM VCSH SCT015 OVC030
     FM010000 18006KT P6SM SCT020 BKN060
      AMD NOT SKED=



000
FTUS45 KSLC 281740
TAFBCE
TAF
KBCE 281740Z 2818/0118 18012KT 1SM -SN SCT006 OVC015
      TEMPO 2818/2820 1/2SM SN VV008
     FM282300 18012KT P6SM VCSH SCT015 OVC030
     FM010000 18006KT P6SM SCT020 BKN060
      AMD NOT SKED=



000
FTUS45 KSLC 281740
TAFPVU
TAF
KPVU 281740Z 2818/0118 VRB05KT P6SM SCT050 OVC080
     FM010400 VRB05KT P6SM VCSH OVC050
     FM010700 VRB03KT 3SM -SN OVC030
      TEMPO 0108/0112 1SM -SN OVC010
     FM011300 16006KT P6SM BKN050
      AMD LTD TO CLD VIS AND WIND=



000
FTUS45 KSLC 281740
TAFSLC
TAF
KSLC 281740Z 2818/0124 31005KT P6SM SCT060 BKN100
     FM010600 14005KT P6SM VCSH OVC050
     FM011000 14005KT 3SM -SN OVC030
     FM011500 16005KT P6SM BKN050=



000
FTUS45 KSLC 281740
TAFOGD
TAF
KOGD 281740Z 2818/0118 04010KT P6SM SCT060 BKN100
     FM010700 14005KT P6SM OVC050
     FM011000 14005KT P6SM VCSH OVC040=



000
FTUS45 KSLC 281740
TAFLGU
TAF
KLGU 281740Z 2818/0118 VRB04KT P6SM SCT060 BKN100=



000
FTUS45 KSLC 281740
TAFLGU
TAF
KLGU 281740Z 2818/0118 VRB04KT P6SM SCT060 BKN100=



000
FTUS45 KSLC 281740
TAFENV
TAF
KENV 281740Z 2818/0118 06009KT P6SM SCT030 BKN060
      TEMPO 2820/2824 3SM -SHSN OVC030
     FM010300 36008KT P6SM SCT060 BKN100
      AMD LTD TO CLD VIS AND WIND=



000
FTUS45 KSLC 281740
TAFSGU
TAF
KSGU 281740Z 2818/0118 VRB05KT P6SM -RA SCT030 OVC050
     FM282000 22010KT P6SM VCSH SCT030 BKN060
     FM010300 VRB04KT P6SM SCT040 BKN080
      AMD LTD TO CLD VIS AND WIND=



000
FTUS45 KSLC 281740
TAFSLC
TAF
KSLC 281740Z 2818/0124 31005KT P6SM SCT060 BKN100
     FM010600 14005KT P6SM VCSH OVC050
     FM011000 14005KT 3SM -SN OVC030
     FM011500 16005KT P6SM BKN050=



000
FTUS45 KSLC 281740
TAFPVU
TAF
KPVU 281740Z 2818/0118 VRB05KT P6SM SCT050 OVC080
     FM010400 VRB05KT P6SM VCSH OVC050
     FM010700 VRB03KT 3SM -SN OVC030
      TEMPO 0108/0112 1SM -SN OVC010
     FM011300 16006KT P6SM BKN050
      AMD LTD TO CLD VIS AND WIND=



000
FTUS45 KSLC 281511 AAC
TAFSLC
TAF AMD
KSLC 281511Z 2815/0118 17006KT P6SM SCT060 BKN140
     FM281700 33007KT P6SM VCSH SCT030 BKN050=



000
FTUS45 KSLC 281511 AAC
TAFSLC
TAF AMD
KSLC 281511Z 2815/0118 17006KT P6SM SCT060 BKN140
     FM281700 33007KT P6SM VCSH SCT030 BKN050=



000
FTUS45 KSLC 281511 AAC
TAFSLC
TAF AMD
KSLC 281511Z 2815/0118 17006KT P6SM SCT060 BKN140
     FM281700 33007KT P6SM VCSH SCT030 BKN050=



000
FTUS45 KSLC 281511 AAC
TAFSLC
TAF AMD
KSLC 281511Z 2815/0118 17006KT P6SM SCT060 BKN140
     FM281700 33007KT P6SM VCSH SCT030 BKN050=



000
FTUS45 KSLC 281510 AAB
TAFCDC
TAF AMD
KCDC 281510Z 2815/0112 VRB04KT 1/4SM +SN VV006
     FM281700 20006KT 3SM -SHSN SCT008 OVC020
      TEMPO 2817/2819 1SM -SHSN BKN008 OVC020
     FM281900 20008KT P6SM VCSH SCT020 BKN040=



000
FTUS45 KSLC 281510 AAB
TAFCDC
TAF AMD
KCDC 281510Z 2815/0112 VRB04KT 1/4SM +SN VV006
     FM281700 20006KT 3SM -SHSN SCT008 OVC020
      TEMPO 2817/2819 1SM -SHSN BKN008 OVC020
     FM281900 20008KT P6SM VCSH SCT020 BKN040=



000
FTUS45 KSLC 281510 AAB
TAFCDC
TAF AMD
KCDC 281510Z 2815/0112 VRB04KT 1/4SM +SN VV006
     FM281700 20006KT 3SM -SHSN SCT008 OVC020
      TEMPO 2817/2819 1SM -SHSN BKN008 OVC020
     FM281900 20008KT P6SM VCSH SCT020 BKN040=



000
FTUS45 KSLC 281510 AAB
TAFCDC
TAF AMD
KCDC 281510Z 2815/0112 VRB04KT 1/4SM +SN VV006
     FM281700 20006KT 3SM -SHSN SCT008 OVC020
      TEMPO 2817/2819 1SM -SHSN BKN008 OVC020
     FM281900 20008KT P6SM VCSH SCT020 BKN040=



000
FTUS45 KSLC 281452 AAB
TAFBCE
TAF AMD
KBCE 281452Z 2815/0112 15010KT 1/4SM +SN VV006
     FM281700 16010KT 1SM -SN SCT006 OVC015
     FM281900 19008KT 3SM -SHSN SCT007 OVC025=



000
FTUS45 KSLC 281452 AAB
TAFBCE
TAF AMD
KBCE 281452Z 2815/0112 15010KT 1/4SM +SN VV006
     FM281700 16010KT 1SM -SN SCT006 OVC015
     FM281900 19008KT 3SM -SHSN SCT007 OVC025=



000
FTUS45 KSLC 281452 AAB
TAFBCE
TAF AMD
KBCE 281452Z 2815/0112 15010KT 1/4SM +SN VV006
     FM281700 16010KT 1SM -SN SCT006 OVC015
     FM281900 19008KT 3SM -SHSN SCT007 OVC025=



000
FTUS45 KSLC 281452 AAB
TAFBCE
TAF AMD
KBCE 281452Z 2815/0112 15010KT 1/4SM +SN VV006
     FM281700 16010KT 1SM -SN SCT006 OVC015
     FM281900 19008KT 3SM -SHSN SCT007 OVC025=



000
FTUS45 KSLC 281202 AAA
TAFCDC
TAF AMD
KCDC 281202Z 2812/0112 VRB04KT 3SM -SHSN BR SCT007 BKN025
      TEMPO 2813/2817 1SM -SN BR SCT007 BKN015
     FM281900 19007KT P6SM VCSH SCT020 BKN040=



000
FTUS45 KSLC 281202 AAA
TAFCDC
TAF AMD
KCDC 281202Z 2812/0112 VRB04KT 3SM -SHSN BR SCT007 BKN025
      TEMPO 2813/2817 1SM -SN BR SCT007 BKN015
     FM281900 19007KT P6SM VCSH SCT020 BKN040=



000
FTUS45 KSLC 281202 AAA
TAFCDC
TAF AMD
KCDC 281202Z 2812/0112 VRB04KT 3SM -SHSN BR SCT007 BKN025
      TEMPO 2813/2817 1SM -SN BR SCT007 BKN015
     FM281900 19007KT P6SM VCSH SCT020 BKN040=



000
FTUS45 KSLC 281202 AAA
TAFCDC
TAF AMD
KCDC 281202Z 2812/0112 VRB04KT 3SM -SHSN BR SCT007 BKN025
      TEMPO 2813/2817 1SM -SN BR SCT007 BKN015
     FM281900 19007KT P6SM VCSH SCT020 BKN040=



000
FTUS45 KSLC 281202 AAA
TAFBCE
TAF AMD
KBCE 281202Z 2812/0112 14008KT 1SM -SN BR SCT006 OVC015
     FM281900 19008KT 3SM -SHSN BR SCT007 BKN025=



000
FTUS45 KSLC 281202 AAA
TAFBCE
TAF AMD
KBCE 281202Z 2812/0112 14008KT 1SM -SN BR SCT006 OVC015
     FM281900 19008KT 3SM -SHSN BR SCT007 BKN025=



000
FTUS45 KSLC 281202 AAA
TAFBCE
TAF AMD
KBCE 281202Z 2812/0112 14008KT 1SM -SN BR SCT006 OVC015
     FM281900 19008KT 3SM -SHSN BR SCT007 BKN025=



000
FTUS45 KSLC 281202 AAA
TAFBCE
TAF AMD
KBCE 281202Z 2812/0112 14008KT 1SM -SN BR SCT006 OVC015
     FM281900 19008KT 3SM -SHSN BR SCT007 BKN025=



000
FTUS45 KSLC 281124
TAFSLC
TAF
KSLC 281124Z 2812/0118 17006KT P6SM SCT060 BKN140
     FM281700 33007KT P6SM VCSH SCT030 BKN050=



000
FTUS45 KSLC 281124
TAFOGD
TAF
KOGD 281124Z 2812/0112 17004KT P6SM SCT060 BKN140
     FM282000 02008KT P6SM VCSH SCT030 BKN060=



000
FTUS45 KSLC 281124
TAFENV
TAF
KENV 281124Z 2812/0112 01011KT P6SM SCT050 BKN100
     FM281700 06009KT P6SM VCSH SCT030 BKN060
     FM010300 01010KT P6SM SCT060 BKN100
      AMD LTD TO CLD VIS AND WIND=



000
FTUS45 KSLC 281124
TAFBCE
TAF
KBCE 281124Z 2812/0112 VRB04KT 1/2SM -SN FZFG BKN006 OVC015
     FM281600 16006KT 2SM -SN BR SCT007 BKN015
     FM281900 19008KT 3SM -SHSN BR SCT007 BKN025=



000
FTUS45 KSLC 281124
TAFOGD
TAF
KOGD 281124Z 2812/0112 17004KT P6SM SCT060 BKN140
     FM282000 02008KT P6SM VCSH SCT030 BKN060=



000
FTUS45 KSLC 281124
TAFENV
TAF
KENV 281124Z 2812/0112 01011KT P6SM SCT050 BKN100
     FM281700 06009KT P6SM VCSH SCT030 BKN060
     FM010300 01010KT P6SM SCT060 BKN100
      AMD LTD TO CLD VIS AND WIND=



000
FTUS45 KSLC 281124
TAFPVU
TAF
KPVU 281124Z 2812/0112 VRB04KT P6SM SCT060 BKN120
     FM281600 30009KT P6SM VCSH SCT020 BKN040
     FM281900 30008KT 2SM -SN BR SCT007 BKN015
     FM282300 VRB05KT P6SM VCSH SCT020 BKN040
      AMD LTD TO CLD VIS AND WIND=



000
FTUS45 KSLC 281124
TAFSGU
TAF
KSGU 281124Z 2812/0112 03008KT P6SM -RA SCT020 BKN040
     FM281700 21007KT P6SM VCSH SCT030 BKN070
     FM010300 VRB04KT P6SM VCSH SCT030 BKN070
      AMD LTD TO CLD VIS AND WIND=



000
FTUS45 KSLC 281124
TAFLGU
TAF
KLGU 281124Z 2812/0112 VRB04KT P6SM SCT060 BKN140
     FM281500 01007KT P6SM SCT040 BKN080=



000
FTUS45 KSLC 281124
TAFCDC
TAF
KCDC 281124Z 2812/0112 VRB04KT 1SM -SN SCT007 BKN015
     FM281900 19007KT 3SM -SHSN SCT015 BKN025=



000
FTUS45 KSLC 281124
TAFLGU
TAF
KLGU 281124Z 2812/0112 VRB04KT P6SM SCT060 BKN140
     FM281500 01007KT P6SM SCT040 BKN080=



000
FTUS45 KSLC 280941 AAA
TAFBCE
TAF AMD
KBCE 280941Z 2810/0106 VRB04KT 1SM -SN BKN003 OVC015
     FM281700 16006KT 3SM -SHSN BR SCT007 BKN025=



000
FTUS45 KSLC 280941 AAA
TAFBCE
TAF AMD
KBCE 280941Z 2810/0106 VRB04KT 1SM -SN BKN003 OVC015
     FM281700 16006KT 3SM -SHSN BR SCT007 BKN025=



000
FTUS45 KSLC 280905 AAB
TAFSLC
TAF AMD
KSLC 280905Z 2809/0112 17006KT P6SM SCT060 BKN120
     FM281700 01007KT P6SM VCSH SCT030 BKN050=



000
FTUS45 KSLC 280905 AAB
TAFSLC
TAF AMD
KSLC 280905Z 2809/0112 17006KT P6SM SCT060 BKN120
     FM281700 01007KT P6SM VCSH SCT030 BKN050=



000
FTUS45 KSLC 280800 AAA
TAFCDC
TAF AMD
KCDC 280800Z 2808/0106 VRB04KT P6SM VCSH SCT030 BKN060
     FM281000 VRB04KT 1SM -SN SCT007 BKN015
     FM281400 19007KT 3SM -SHSN SCT015 BKN025=



000
FTUS45 KSLC 280800 AAA
TAFCDC
TAF AMD
KCDC 280800Z 2808/0106 VRB04KT P6SM VCSH SCT030 BKN060
     FM281000 VRB04KT 1SM -SN SCT007 BKN015
     FM281400 19007KT 3SM -SHSN SCT015 BKN025=



000
FTUS45 KSLC 280523
TAFSLC
TAF
KSLC 280523Z 2806/0112 13006KT P6SM SCT060 BKN120
     FM281700 01007KT P6SM VCSH SCT030 BKN050=



000
FTUS45 KSLC 280523
TAFBCE
TAF
KBCE 280523Z 2806/0106 20007KT 1/4SM FZFG VV003
     FM281000 VRB04KT 1SM -SN SCT008 OVC015
     FM281700 16006KT 3SM -SHSN BR SCT007 BKN025=



000
FTUS45 KSLC 280523
TAFSGU
TAF
KSGU 280523Z 2806/0106 11010G18KT P6SM VCSH SCT030 BKN080
     FM280700 08008KT P6SM -RA SCT020 BKN040
     FM281700 21007KT P6SM VCSH SCT030 BKN070
      AMD LTD TO CLD VIS AND WIND=



000
FTUS45 KSLC 280523
TAFENV
TAF
KENV 280523Z 2806/0106 01011KT P6SM SCT050 BKN100
     FM280900 VRB04KT P6SM SCT050 BKN100
     FM281700 06009KT P6SM VCSH SCT030 BKN060
     FM010300 01010KT P6SM SCT060 BKN100
      AMD LTD TO CLD VIS AND WIND=



000
FTUS45 KSLC 280523
TAFPVU
TAF
KPVU 280523Z 2806/0106 VRB04KT P6SM SCT060 BKN120
     FM281600 VRB04KT P6SM VCSH SCT020 BKN040
      AMD LTD TO CLD VIS AND WIND=



000
FTUS45 KSLC 280523
TAFOGD
TAF
KOGD 280523Z 2806/0106 17008KT P6SM SCT060 BKN120
     FM282000 02008KT P6SM VCSH SCT030 BKN060=



000
FTUS45 KSLC 280523
TAFCDC
TAF
KCDC 280523Z 2806/0106 VRB04KT P6SM SCT050 BKN080
     FM280800 VRB04KT 1SM -SN SCT007 BKN015
     FM281400 19007KT 3SM -SHSN SCT015 BKN025=



000
FTUS45 KSLC 280523
TAFPVU
TAF
KPVU 280523Z 2806/0106 VRB04KT P6SM SCT060 BKN120
     FM281600 VRB04KT P6SM VCSH SCT020 BKN040
      AMD LTD TO CLD VIS AND WIND=



000
FTUS45 KSLC 280523
TAFSLC
TAF
KSLC 280523Z 2806/0112 13006KT P6SM SCT060 BKN120
     FM281700 01007KT P6SM VCSH SCT030 BKN050=



000
FTUS45 KSLC 280523
TAFLGU
TAF
KLGU 280523Z 2806/0106 VRB04KT P6SM SCT060 BKN120
     FM281500 01007KT P6SM SCT040 BKN080=



000
FTUS45 KSLC 280523
TAFSGU
TAF
KSGU 280523Z 2806/0106 11010G18KT P6SM VCSH SCT030 BKN080
     FM280700 08008KT P6SM -RA SCT020 BKN040
     FM281700 21007KT P6SM VCSH SCT030 BKN070
      AMD LTD TO CLD VIS AND WIND=



000
FTUS45 KSLC 280523
TAFCDC
TAF
KCDC 280523Z 2806/0106 VRB04KT P6SM SCT050 BKN080
     FM280800 VRB04KT 1SM -SN SCT007 BKN015
     FM281400 19007KT 3SM -SHSN SCT015 BKN025=



000
FTUS45 KSLC 280523
TAFENV
TAF
KENV 280523Z 2806/0106 01011KT P6SM SCT050 BKN100
     FM280900 VRB04KT P6SM SCT050 BKN100
     FM281700 06009KT P6SM VCSH SCT030 BKN060
     FM010300 01010KT P6SM SCT060 BKN100
      AMD LTD TO CLD VIS AND WIND=



000
FTUS45 KSLC 280523
TAFBCE
TAF
KBCE 280523Z 2806/0106 20007KT 1/4SM FZFG VV003
     FM281000 VRB04KT 1SM -SN SCT008 OVC015
     FM281700 16006KT 3SM -SHSN BR SCT007 BKN025=



000
FTUS45 KSLC 280523
TAFLGU
TAF
KLGU 280523Z 2806/0106 VRB04KT P6SM SCT060 BKN120
     FM281500 01007KT P6SM SCT040 BKN080=



000
FTUS45 KSLC 280523
TAFOGD
TAF
KOGD 280523Z 2806/0106 17008KT P6SM SCT060 BKN120
     FM282000 02008KT P6SM VCSH SCT030 BKN060=



000
FTUS45 KSLC 280341 AAB
TAFBCE
TAF AMD
KBCE 280341Z 2804/2824 20007KT 5SM BR VCSH SCT015 BKN040
      TEMPO 2804/2807 1SM BR BKN001
     FM281000 VRB04KT 1SM -SN SCT008 OVC015
     FM281700 16006KT 2SM -SHSN BR SCT007 BKN015=



000
FTUS45 KSLC 280341 AAB
TAFBCE
TAF AMD
KBCE 280341Z 2804/2824 20007KT 5SM BR VCSH SCT015 BKN040
      TEMPO 2804/2807 1SM BR BKN001
     FM281000 VRB04KT 1SM -SN SCT008 OVC015
     FM281700 16006KT 2SM -SHSN BR SCT007 BKN015=



000
FTUS45 KSLC 280301 AAB
TAFSLC
TAF AMD
KSLC 280301Z 2803/0106 13006KT P6SM SCT060 BKN120
     FM281700 01007KT P6SM VCSH BKN050=



000
FTUS45 KSLC 280301 AAB
TAFSLC
TAF AMD
KSLC 280301Z 2803/0106 13006KT P6SM SCT060 BKN120
     FM281700 01007KT P6SM VCSH BKN050=



000
FTUS45 KSLC 280301 AAA
TAFBCE
TAF AMD
KBCE 280301Z 2803/2824 20007KT 5SM BR VCSH SCT015 BKN040
      TEMPO 2803/2805 1SM BR
     FM281000 VRB04KT 1SM -SN SCT008 OVC015
     FM281700 16006KT 2SM -SHSN BR SCT007 BKN015=



000
FTUS45 KSLC 280301 AAA
TAFBCE
TAF AMD
KBCE 280301Z 2803/2824 20007KT 5SM BR VCSH SCT015 BKN040
      TEMPO 2803/2805 1SM BR
     FM281000 VRB04KT 1SM -SN SCT008 OVC015
     FM281700 16006KT 2SM -SHSN BR SCT007 BKN015=



000
FTUS45 KSLC 280301 AAB
TAFSLC
TAF AMD
KSLC 280301Z 2803/0106 13006KT P6SM SCT060 BKN120
     FM281700 01007KT P6SM VCSH BKN050=



000
FTUS45 KSLC 280301 AAA
TAFBCE
TAF AMD
KBCE 280301Z 2803/2824 20007KT 5SM BR VCSH SCT015 BKN040
      TEMPO 2803/2805 1SM BR
     FM281000 VRB04KT 1SM -SN SCT008 OVC015
     FM281700 16006KT 2SM -SHSN BR SCT007 BKN015=



000
FTUS45 KSLC 280301 AAA
TAFBCE
TAF AMD
KBCE 280301Z 2803/2824 20007KT 5SM BR VCSH SCT015 BKN040
      TEMPO 2803/2805 1SM BR
     FM281000 VRB04KT 1SM -SN SCT008 OVC015
     FM281700 16006KT 2SM -SHSN BR SCT007 BKN015=



000
FTUS45 KSLC 272329
TAFSLC
TAF
KSLC 272329Z 2800/0106 13006KT P6SM VCSH FEW050 BKN100
     FM280300 18007KT P6SM SCT060 BKN120
     FM281700 01007KT P6SM VCSH BKN050=



000
FTUS45 KSLC 272329
TAFOGD
TAF
KOGD 272329Z 2800/2824 08007KT P6SM VCSH SCT035 BKN050
     FM280400 17008KT P6SM SCT060 BKN120
     FM282000 02008KT P6SM BKN100=



000
FTUS45 KSLC 272329
TAFSGU
TAF
KSGU 272329Z 2800/2824 25009KT P6SM SCT060 BKN120
     FM280600 VRB05KT P6SM VCSH SCT030 BKN050
     FM281900 21007KT P6SM VCSH BKN040
      AMD LTD TO CLD VIS AND WIND=



000
FTUS45 KSLC 272329
TAFLGU
TAF
KLGU 272329Z 2800/2824 VRB04KT P6SM VCSH SCT035 BKN080
      TEMPO 2800/2803 1SM -SN BR BKN015
     FM280300 VRB04KT P6SM SCT060 BKN120
     FM281500 01007KT P6SM SCT100=



000
FTUS45 KSLC 272329
TAFBCE
TAF
KBCE 272329Z 2800/2824 20007KT P6SM VCSH SCT015 BKN040
      TEMPO 2800/2802 1/4SM +SN FG OVC008
     FM281000 VRB04KT 1SM -SN SCT008 OVC015
     FM281700 16006KT 2SM -SHSN BR SCT007 BKN015=



000
FTUS45 KSLC 272329
TAFPVU
TAF
KPVU 272329Z 2800/2824 VRB04KT P6SM VCSH SCT050 BKN100
     FM280200 VRB04KT P6SM SCT060 BKN120
     FM281600 VRB04KT P6SM VCSH BKN040
      AMD LTD TO CLD VIS AND WIND=



000
FTUS45 KSLC 272329
TAFSLC
TAF
KSLC 272329Z 2800/0106 13006KT P6SM VCSH FEW050 BKN100
     FM280300 18007KT P6SM SCT060 BKN120
     FM281700 01007KT P6SM VCSH BKN050=



000
FTUS45 KSLC 272329
TAFLGU
TAF
KLGU 272329Z 2800/2824 VRB04KT P6SM VCSH SCT035 BKN080
      TEMPO 2800/2803 1SM -SN BR BKN015
     FM280300 VRB04KT P6SM SCT060 BKN120
     FM281500 01007KT P6SM SCT100=



000
FTUS45 KSLC 272329
TAFOGD
TAF
KOGD 272329Z 2800/2824 08007KT P6SM VCSH SCT035 BKN050
     FM280400 17008KT P6SM SCT060 BKN120
     FM282000 02008KT P6SM BKN100=



000
FTUS45 KSLC 272329
TAFENV
TAF
KENV 272329Z 2800/2824 10007KT P6SM VCSH SCT060 BKN090
     FM280200 VRB04KT P6SM SCT050 BKN100
     FM281700 06009KT P6SM VCSH SCT030 BKN060
      AMD LTD TO CLD VIS AND WIND=



000
FTUS45 KSLC 272329
TAFCDC
TAF
KCDC 272329Z 2800/2824 21007KT P6SM SCT050 BKN080
     FM280700 VRB04KT 1SM -SN SCT010 BKN020
     FM281400 19007KT 3SM -SHSN SCT015 BKN025=



000
FTUS45 KSLC 272329
TAFENV
TAF
KENV 272329Z 2800/2824 10007KT P6SM VCSH SCT060 BKN090
     FM280200 VRB04KT P6SM SCT050 BKN100
     FM281700 06009KT P6SM VCSH SCT030 BKN060
      AMD LTD TO CLD VIS AND WIND=



000
FTUS45 KSLC 272329
TAFPVU
TAF
KPVU 272329Z 2800/2824 VRB04KT P6SM VCSH SCT050 BKN100
     FM280200 VRB04KT P6SM SCT060 BKN120
     FM281600 VRB04KT P6SM VCSH BKN040
      AMD LTD TO CLD VIS AND WIND=



000
FTUS45 KSLC 272329
TAFCDC
TAF
KCDC 272329Z 2800/2824 21007KT P6SM SCT050 BKN080
     FM280700 VRB04KT 1SM -SN SCT010 BKN020
     FM281400 19007KT 3SM -SHSN SCT015 BKN025=



000
FTUS45 KSLC 272329
TAFSGU
TAF
KSGU 272329Z 2800/2824 25009KT P6SM SCT060 BKN120
     FM280600 VRB05KT P6SM VCSH SCT030 BKN050
     FM281900 21007KT P6SM VCSH BKN040
      AMD LTD TO CLD VIS AND WIND=



000
FTUS45 KSLC 272329
TAFBCE
TAF
KBCE 272329Z 2800/2824 20007KT P6SM VCSH SCT015 BKN040
      TEMPO 2800/2802 1/4SM +SN FG OVC008
     FM281000 VRB04KT 1SM -SN SCT008 OVC015
     FM281700 16006KT 2SM -SHSN BR SCT007 BKN015=



000
FTUS45 KSLC 272329
TAFSLC
TAF
KSLC 272329Z 2800/0106 13006KT P6SM VCSH FEW050 BKN100
     FM280300 18007KT P6SM SCT060 BKN120
     FM281700 01007KT P6SM VCSH BKN050=



000
FTUS45 KSLC 272329
TAFSGU
TAF
KSGU 272329Z 2800/2824 25009KT P6SM SCT060 BKN120
     FM280600 VRB05KT P6SM VCSH SCT030 BKN050
     FM281900 21007KT P6SM VCSH BKN040
      AMD LTD TO CLD VIS AND WIND=



000
FTUS45 KSLC 272329
TAFPVU
TAF
KPVU 272329Z 2800/2824 VRB04KT P6SM VCSH SCT050 BKN100
     FM280200 VRB04KT P6SM SCT060 BKN120
     FM281600 VRB04KT P6SM VCSH BKN040
      AMD LTD TO CLD VIS AND WIND=



000
FTUS45 KSLC 272329
TAFOGD
TAF
KOGD 272329Z 2800/2824 08007KT P6SM VCSH SCT035 BKN050
     FM280400 17008KT P6SM SCT060 BKN120
     FM282000 02008KT P6SM BKN100=



000
FTUS45 KSLC 272329
TAFLGU
TAF
KLGU 272329Z 2800/2824 VRB04KT P6SM VCSH SCT035 BKN080
      TEMPO 2800/2803 1SM -SN BR BKN015
     FM280300 VRB04KT P6SM SCT060 BKN120
     FM281500 01007KT P6SM SCT100=



000
FTUS45 KSLC 272329
TAFENV
TAF
KENV 272329Z 2800/2824 10007KT P6SM VCSH SCT060 BKN090
     FM280200 VRB04KT P6SM SCT050 BKN100
     FM281700 06009KT P6SM VCSH SCT030 BKN060
      AMD LTD TO CLD VIS AND WIND=



000
FTUS45 KSLC 272329
TAFSGU
TAF
KSGU 272329Z 2800/2824 25009KT P6SM SCT060 BKN120
     FM280600 VRB05KT P6SM VCSH SCT030 BKN050
     FM281900 21007KT P6SM VCSH BKN040
      AMD LTD TO CLD VIS AND WIND=



000
FTUS45 KSLC 272329
TAFCDC
TAF
KCDC 272329Z 2800/2824 21007KT P6SM SCT050 BKN080
     FM280700 VRB04KT 1SM -SN SCT010 BKN020
     FM281400 19007KT 3SM -SHSN SCT015 BKN025=



000
FTUS45 KSLC 272329
TAFBCE
TAF
KBCE 272329Z 2800/2824 20007KT P6SM VCSH SCT015 BKN040
      TEMPO 2800/2802 1/4SM +SN FG OVC008
     FM281000 VRB04KT 1SM -SN SCT008 OVC015
     FM281700 16006KT 2SM -SHSN BR SCT007 BKN015=



000
FTUS45 KSLC 272233 AAA
TAFBCE
TAF AMD
KBCE 272233Z 2723/2818 20007KT P6SM VCSH BKN050
      TEMPO 2723/2801 12008KT 1/2SM SN FG BKN010 OVC025
     FM280100 VRB04KT P6SM SCT100
     FM281400 16006KT 2SM -SN BR SCT007 BKN015=



000
FTUS45 KSLC 272233 AAA
TAFBCE
TAF AMD
KBCE 272233Z 2723/2818 20007KT P6SM VCSH BKN050
      TEMPO 2723/2801 12008KT 1/2SM SN FG BKN010 OVC025
     FM280100 VRB04KT P6SM SCT100
     FM281400 16006KT 2SM -SN BR SCT007 BKN015=



000
FTUS45 KSLC 272233 AAA
TAFBCE
TAF AMD
KBCE 272233Z 2723/2818 20007KT P6SM VCSH BKN050
      TEMPO 2723/2801 12008KT 1/2SM SN FG BKN010 OVC025
     FM280100 VRB04KT P6SM SCT100
     FM281400 16006KT 2SM -SN BR SCT007 BKN015=



000
FTUS45 KSLC 272233 AAA
TAFBCE
TAF AMD
KBCE 272233Z 2723/2818 20007KT P6SM VCSH BKN050
      TEMPO 2723/2801 12008KT 1/2SM SN FG BKN010 OVC025
     FM280100 VRB04KT P6SM SCT100
     FM281400 16006KT 2SM -SN BR SCT007 BKN015=



000
FTUS45 KSLC 272054 AAB
TAFSLC
TAF AMD
KSLC 272054Z 2721/2824 18006KT P6SM VCSH FEW050 BKN100
     FM280100 18007KT P6SM SCT060 BKN120
     FM281500 15007KT P6SM VCSH BKN035=



000
FTUS45 KSLC 272054 AAB
TAFSLC
TAF AMD
KSLC 272054Z 2721/2824 18006KT P6SM VCSH FEW050 BKN100
     FM280100 18007KT P6SM SCT060 BKN120
     FM281500 15007KT P6SM VCSH BKN035=



000
FTUS45 KSLC 272054 AAB
TAFSLC
TAF AMD
KSLC 272054Z 2721/2824 18006KT P6SM VCSH FEW050 BKN100
     FM280100 18007KT P6SM SCT060 BKN120
     FM281500 15007KT P6SM VCSH BKN035=



000
FTUS45 KSLC 271740
TAFCDC
TAF
KCDC 271740Z 2718/2818 VRB04KT P6SM FEW150
     FM271900 21007KT P6SM FEW150
     FM280100 VRB04KT P6SM FEW150
     FM281400 19007KT P6SM VCSH BKN040=



000
FTUS45 KSLC 271740
TAFPVU
TAF
KPVU 271740Z 2718/2818 VRB04KT P6SM VCSH SCT050 BKN100
     FM280200 VRB04KT P6SM SCT060 BKN120
     FM281600 VRB04KT P6SM VCSH BKN040
      AMD LTD TO CLD VIS AND WIND=



000
FTUS45 KSLC 271740
TAFENV
TAF
KENV 271740Z 2718/2818 11007KT P6SM OVC090
     FM280000 VRB04KT P6SM VCSH SCT030 BKN060
      AMD LTD TO CLD VIS AND WIND=



000
FTUS45 KSLC 271740
TAFOGD
TAF
KOGD 271740Z 2718/2818 18005KT P6SM VCSH SCT035 OVC050
     FM280300 17008KT P6SM SCT060 BKN120=



000
FTUS45 KSLC 271740
TAFSLC
TAF
KSLC 271740Z 2718/2824 16008KT P6SM OVC070
     FM271900 23007KT P6SM VCSH SCT035 BKN080
     FM280100 18007KT P6SM SCT060 BKN120
     FM281500 15007KT P6SM VCSH BKN035=



000
FTUS45 KSLC 271740
TAFSLC
TAF
KSLC 271740Z 2718/2824 16008KT P6SM OVC070
     FM271900 23007KT P6SM VCSH SCT035 BKN080
     FM280100 18007KT P6SM SCT060 BKN120
     FM281500 15007KT P6SM VCSH BKN035=



000
FTUS45 KSLC 271740
TAFCDC
TAF
KCDC 271740Z 2718/2818 VRB04KT P6SM FEW150
     FM271900 21007KT P6SM FEW150
     FM280100 VRB04KT P6SM FEW150
     FM281400 19007KT P6SM VCSH BKN040=



000
FTUS45 KSLC 271740
TAFENV
TAF
KENV 271740Z 2718/2818 11007KT P6SM OVC090
     FM280000 VRB04KT P6SM VCSH SCT030 BKN060
      AMD LTD TO CLD VIS AND WIND=



000
FTUS45 KSLC 271740
TAFCDC
TAF
KCDC 271740Z 2718/2818 VRB04KT P6SM FEW150
     FM271900 21007KT P6SM FEW150
     FM280100 VRB04KT P6SM FEW150
     FM281400 19007KT P6SM VCSH BKN040=



000
FTUS45 KSLC 271740
TAFPVU
TAF
KPVU 271740Z 2718/2818 VRB04KT P6SM VCSH SCT050 BKN100
     FM280200 VRB04KT P6SM SCT060 BKN120
     FM281600 VRB04KT P6SM VCSH BKN040
      AMD LTD TO CLD VIS AND WIND=



000
FTUS45 KSLC 271740
TAFENV
TAF
KENV 271740Z 2718/2818 11007KT P6SM OVC090
     FM280000 VRB04KT P6SM VCSH SCT030 BKN060
      AMD LTD TO CLD VIS AND WIND=



000
FTUS45 KSLC 271740
TAFBCE
TAF
KBCE 271740Z 2718/2818 30006KT P6SM VCSH BKN060
     FM272000 20007KT P6SM VCSH BKN050
     FM280100 VRB04KT P6SM SCT100
     FM281400 16006KT 2SM -SN BR SCT007 BKN015=



000
FTUS45 KSLC 271740
TAFOGD
TAF
KOGD 271740Z 2718/2818 18005KT P6SM VCSH SCT035 OVC050
     FM280300 17008KT P6SM SCT060 BKN120=



000
FTUS45 KSLC 271740
TAFSGU
TAF
KSGU 271740Z 2718/2818 VRB05KT P6SM SCT150
     FM271900 25009KT P6SM SCT060 BKN100
     FM280200 VRB05KT P6SM SCT060 BKN100
     FM281300 21007KT P6SM VCSH BKN040
      AMD LTD TO CLD VIS AND WIND=



000
FTUS45 KSLC 271740
TAFLGU
TAF
KLGU 271740Z 2718/2818 VRB04KT P6SM VCSH SCT030 OVC050
     FM280300 VRB04KT P6SM SCT060 BKN120=



000
FTUS45 KSLC 271740
TAFLGU
TAF
KLGU 271740Z 2718/2818 VRB04KT P6SM VCSH SCT030 OVC050
     FM280300 VRB04KT P6SM SCT060 BKN120=



000
FTUS45 KSLC 271740
TAFPVU
TAF
KPVU 271740Z 2718/2818 VRB04KT P6SM VCSH SCT050 BKN100
     FM280200 VRB04KT P6SM SCT060 BKN120
     FM281600 VRB04KT P6SM VCSH BKN040
      AMD LTD TO CLD VIS AND WIND=



000
FTUS45 KSLC 271740
TAFBCE
TAF
KBCE 271740Z 2718/2818 30006KT P6SM VCSH BKN060
     FM272000 20007KT P6SM VCSH BKN050
     FM280100 VRB04KT P6SM SCT100
     FM281400 16006KT 2SM -SN BR SCT007 BKN015=



000
FTUS45 KSLC 271740
TAFSGU
TAF
KSGU 271740Z 2718/2818 VRB05KT P6SM SCT150
     FM271900 25009KT P6SM SCT060 BKN100
     FM280200 VRB05KT P6SM SCT060 BKN100
     FM281300 21007KT P6SM VCSH BKN040
      AMD LTD TO CLD VIS AND WIND=



000
FTUS45 KSLC 271740
TAFLGU
TAF
KLGU 271740Z 2718/2818 VRB04KT P6SM VCSH SCT030 OVC050
     FM280300 VRB04KT P6SM SCT060 BKN120=



000
FTUS45 KSLC 271740
TAFOGD
TAF
KOGD 271740Z 2718/2818 18005KT P6SM VCSH SCT035 OVC050
     FM280300 17008KT P6SM SCT060 BKN120=



000
FTUS45 KSLC 271740
TAFLGU
TAF
KLGU 271740Z 2718/2818 VRB04KT P6SM VCSH SCT030 OVC050
     FM280300 VRB04KT P6SM SCT060 BKN120=



000
FTUS45 KSLC 271740
TAFPVU
TAF
KPVU 271740Z 2718/2818 VRB04KT P6SM VCSH SCT050 BKN100
     FM280200 VRB04KT P6SM SCT060 BKN120
     FM281600 VRB04KT P6SM VCSH BKN040
      AMD LTD TO CLD VIS AND WIND=



000
FTUS45 KSLC 271740
TAFOGD
TAF
KOGD 271740Z 2718/2818 18005KT P6SM VCSH SCT035 OVC050
     FM280300 17008KT P6SM SCT060 BKN120=



000
FTUS45 KSLC 271740
TAFSGU
TAF
KSGU 271740Z 2718/2818 VRB05KT P6SM SCT150
     FM271900 25009KT P6SM SCT060 BKN100
     FM280200 VRB05KT P6SM SCT060 BKN100
     FM281300 21007KT P6SM VCSH BKN040
      AMD LTD TO CLD VIS AND WIND=



000
FTUS45 KSLC 271740
TAFSLC
TAF
KSLC 271740Z 2718/2824 16008KT P6SM OVC070
     FM271900 23007KT P6SM VCSH SCT035 BKN080
     FM280100 18007KT P6SM SCT060 BKN120
     FM281500 15007KT P6SM VCSH BKN035=



000
FTUS45 KSLC 271740
TAFBCE
TAF
KBCE 271740Z 2718/2818 30006KT P6SM VCSH BKN060
     FM272000 20007KT P6SM VCSH BKN050
     FM280100 VRB04KT P6SM SCT100
     FM281400 16006KT 2SM -SN BR SCT007 BKN015=



000
FTUS45 KSLC 271740
TAFSLC
TAF
KSLC 271740Z 2718/2824 16008KT P6SM OVC070
     FM271900 23007KT P6SM VCSH SCT035 BKN080
     FM280100 18007KT P6SM SCT060 BKN120
     FM281500 15007KT P6SM VCSH BKN035=



000
FTUS45 KSLC 271740
TAFSGU
TAF
KSGU 271740Z 2718/2818 VRB05KT P6SM SCT150
     FM271900 25009KT P6SM SCT060 BKN100
     FM280200 VRB05KT P6SM SCT060 BKN100
     FM281300 21007KT P6SM VCSH BKN040
      AMD LTD TO CLD VIS AND WIND=



000
FTUS45 KSLC 271740
TAFCDC
TAF
KCDC 271740Z 2718/2818 VRB04KT P6SM FEW150
     FM271900 21007KT P6SM FEW150
     FM280100 VRB04KT P6SM FEW150
     FM281400 19007KT P6SM VCSH BKN040=



000
FTUS45 KSLC 271740
TAFENV
TAF
KENV 271740Z 2718/2818 11007KT P6SM OVC090
     FM280000 VRB04KT P6SM VCSH SCT030 BKN060
      AMD LTD TO CLD VIS AND WIND=



000
FTUS45 KSLC 271740
TAFBCE
TAF
KBCE 271740Z 2718/2818 30006KT P6SM VCSH BKN060
     FM272000 20007KT P6SM VCSH BKN050
     FM280100 VRB04KT P6SM SCT100
     FM281400 16006KT 2SM -SN BR SCT007 BKN015=



    US Dept of Commerce
    National Oceanic and Atmospheric Administration
    National Weather Service
    1325 East West Highway
    Silver Spring, MD 20910
    Page Author: NWS Internet Services Team
Disclaimer
Information Quality
Credits
Glossary
Privacy Policy
Freedom of Information Act (FOIA)
About Us
Career Opportunities